Return to Metar
METAR CYNL 082100Z AUTO 23002KT 9SM CLR M25/M29 A2989 RMK AO1 SLP222
METAR CYNL 082000Z AUTO ///// 9SM CLR M25/M29 A2991 RMK AO1 SLP227
METAR CYNL 081900Z AUTO ///// 9SM CLR M26/M30 A2992 RMK AO1 PRESFR SLP233
METAR CYNL 081800Z AUTO 26006KT 9SM CLR M27/M31 A2995 RMK AO1 SLP243
METAR CYNL 081700Z AUTO 26005KT 9SM CLR M29/M34 A2997 RMK AO1 SLP253
METAR CYNL 081600Z AUTO 25004KT 9SM CLR M32/M37 A2999 RMK AO1 SLP263
METAR CYNL 081500Z AUTO 24008KT 9SM CLR M33/M37 A2999 RMK AO1 SLP265
METAR CYNL 081400Z AUTO 24006KT 9SM CLR M32/M37 A3000 RMK AO1 SLP264
METAR CYNL 081300Z AUTO 26004KT 9SM CLR M30/M35 A3001 RMK AO1 SLP266
METAR CYNL 081200Z AUTO 26004KT 9SM CLR M30/M35 A3002 RMK AO1 SLP269
METAR CYNL 081100Z AUTO 26003KT 9SM CLR M31/M35 A3003 RMK AO1 SLP271
METAR CYNL 081000Z AUTO 26003KT 9SM CLR M31/M35 A3003 RMK AO1 SLP273
METAR CYNL 080900Z AUTO 24003KT 9SM CLR M32/M37 A3004 RMK AO1 SLP277
METAR CYNL 080800Z AUTO 27003KT 9SM CLR M31/M35 A3004 RMK AO1 SLP273
METAR CYNL 080700Z AUTO 25003KT 9SM CLR M32/M36 A3004 RMK AO1 SLP271
METAR CYNL 080600Z AUTO 27004KT 9SM CLR M31/M35 A3003 RMK AO1 SLP268
METAR CYNL 080500Z AUTO ///// 9SM CLR M31/M35 A3003 RMK AO1 SLP265
METAR CYNL 080400Z AUTO ///// 9SM CLR M30/M34 A3001 RMK AO1 SLP261
METAR CYNL 080300Z AUTO 29006KT 7SM CLR M29/M34 A3000 RMK AO1 SLP257
METAR CYNL 080200Z AUTO 30005KT 9SM CLR M29/M33 A2999 RMK AO1 SLP251
METAR CYNL 080100Z AUTO 31006KT 9SM CLR M29/M33 A2997 RMK AO1 PRESRR SLP245
METAR CYNL 080000Z AUTO 30006KT 9SM CLR M28/M33 A2995 RMK AO1 SLP235
METAR CYNL 072300Z AUTO 30008KT 9SM CLR M28/M32 A2993 RMK AO1 PRESRR SLP227
METAR CYNL 072200Z AUTO 30007KT 9SM CLR M27/M31 A2989 RMK AO1 PRESRR SLP211
METAR CYNL 072100Z AUTO ///// 9SM FEW007 M25/M30 A2986 RMK AO1 PRESRR SLP197
METAR CYNL 072000Z AUTO ///// 9SM FEW005 M25/M29 A2982 RMK AO1 SLP179
SPECI CYNL 071943Z AUTO ///// 9SM SCT005 M24/M28 A2981 RMK AO1 SLP176
SPECI CYNL 071926Z AUTO ///// 7SM VV005 M24/M28 A2981 RMK AO1 SLP174
METAR CYNL 071900Z AUTO ///// 9SM SCT005 M24/M28 A2980 RMK AO1 SLP171
SPECI CYNL 071855Z AUTO ///// 9SM SCT005 M24/M28 A2980 RMK AO1 SLP170
SPECI CYNL 071842Z AUTO ///// 4SM VV005 M24/M28 A2979 RMK AO1 SLP169
SPECI CYNL 071839Z AUTO ///// 5SM VV004 M24/M28 A2979 RMK AO1 SLP168
SPECI CYNL 071837Z AUTO ///// 6SM VV005 M24/M28 A2979 RMK AO1 SLP168
SPECI CYNL 071836Z AUTO ///// 7SM VV004 M24/M28 A2979 RMK AO1 SLP168
SPECI CYNL 071805Z AUTO ///// 3SM VV006 M24/M28 A2978 RMK AO1 SLP166
SPECI CYNL 071802Z AUTO ///// 2SM VV006 M24/M28 A2978 RMK AO1 SLP166
METAR CYNL 071800Z AUTO ///// 1 1/2SM VV006 M24/M28 A2978 RMK AO1 SLP166
SPECI CYNL 071754Z AUTO ///// 1 3/4SM VV006 M24/M28 A2978 RMK AO1 SLP165
SPECI CYNL 071751Z AUTO ///// 2 1/2SM VV006 M24/M28 A2978 RMK AO1 SLP165
SPECI CYNL 071743Z AUTO ///// 3SM VV006 M24/M28 A2978 RMK AO1 SLP164
SPECI CYNL 071720Z AUTO ///// 2 1/2SM VV005 M24/M28 A2977 RMK AO1 SLP162
SPECI CYNL 071719Z AUTO ///// 3SM VV004 M25/M28 A2977 RMK AO1 SLP162
SPECI CYNL 071708Z AUTO 28007KT 9SM FEW003 SCT005 BKN011 M25/M29 A2977 RMK AO1 SLP162
SPECI CYNL 071707Z AUTO 28006KT 8SM VV004 M25/M29 A2977 RMK AO1 SLP162
SPECI CYNL 071702Z AUTO 28007KT 5SM VV009 M25/M29 A2977 RMK AO1 SLP161
METAR CYNL 071700Z AUTO 28007KT 6SM VV010 M25/M29 A2977 RMK AO1 SLP161
SPECI CYNL 071657Z AUTO 28006KT 4SM VV011 M25/M29 A2977 RMK AO1 SLP161
SPECI CYNL 071654Z AUTO 28007KT 2SM VV010 M25/M29 A2977 RMK AO1 SLP161
SPECI CYNL 071653Z AUTO 28007KT 1 3/4SM VV010 M25/M29 A2977 RMK AO1 SLP161
SPECI CYNL 071651Z AUTO ///// 1 3/4SM VV009 M25/M29 A2977 RMK AO1 SLP161
SPECI CYNL 071650Z AUTO ///// 2SM FEW005 SCT011 M25/M29 A2977 RMK AO1 SLP161
SPECI CYNL 071634Z AUTO 28006KT 5SM SCT005 M25/M29 A2976 RMK AO1 SLP159
SPECI CYNL 071632Z AUTO 28005KT 5SM VV005 M25/M29 A2976 RMK AO1 SLP159
SPECI CYNL 071615Z AUTO 28006KT 9SM FEW006 M26/M29 A2976 RMK AO1 SLP158
METAR CYNL 071600Z AUTO ///// 9SM CLR M26/M30 A2975 RMK AO1 SLP156
METAR CYNL 071500Z AUTO 29006KT 9SM CLR M26/M29 A2973 RMK AO1 SLP150
METAR CYNL 071400Z AUTO 28006KT 9SM CLR M25/M29 A2972 RMK AO1 SLP144
SPECI CYNL 071304Z AUTO ///// 9SM FEW006 SCT008 M24/M27 A2971 RMK AO1 SLP141
SPECI CYNL 071302Z AUTO ///// 9SM FEW006 SCT008 BKN011 M24/M27 A2971 RMK AO1 SLP141
METAR CYNL 071300Z AUTO ///// 9SM FEW006 BKN008 M24/M27 A2971 RMK AO1 SLP141
SPECI CYNL 071247Z AUTO ///// 3SM VV007 M23/M27 A2971 RMK AO1 SLP141
SPECI CYNL 071240Z AUTO ///// 2 1/2SM VV009 M23/M27 A2971 RMK AO1 SLP141
SPECI CYNL 071236Z AUTO ///// 2SM VV011 M23/M27 A2971 RMK AO1 SLP141
SPECI CYNL 071234Z AUTO ///// 1 3/4SM VV012 M23/M27 A2971 RMK AO1 SLP141
SPECI CYNL 071231Z AUTO ///// 2 1/2SM VV012 M23/M27 A2971 RMK AO1 SLP141
SPECI CYNL 071223Z AUTO ///// 8SM VV010 M23/M27 A2971 RMK AO1 SLP141
SPECI CYNL 071201Z AUTO ///// 9SM FEW008 M23/M27 A2970 RMK AO1 SLP139
METAR CYNL 071200Z AUTO ///// 9SM CLR M23/M27 A2970 RMK AO1 SLP139
METAR CYNL 071100Z AUTO ///// 9SM SCT092 M22/M26 A2969 RMK AO1 SLP134
METAR CYNL 071000Z AUTO ///// 9SM SCT100 M21/M24 A2968 RMK AO1 SLP132
SPECI CYNL 070918Z AUTO 31004KT 9SM SCT024 M20/M23 A2967 RMK AO1 SLP126
METAR CYNL 070900Z AUTO 31006KT 9SM BKN024 OVC029 M19/M23 A2967 RMK AO1 SLP125
SPECI CYNL 070845Z AUTO 30003KT 9SM BKN024 M20/M23 A2967 RMK AO1 SLP122
SPECI CYNL 070839Z AUTO 31004KT 9SM SCT024 BKN029 M20/M23 A2967 RMK AO1 SLP122
METAR CYNL 070800Z AUTO 32003KT 9SM OVC050 M19/M22 A2967 RMK AO1 SLP120
SPECI CYNL 070714Z AUTO 00000KT 5SM FEW006 SCT011 OVC056 M19/M22 A2966 RMK AO1 SLP116
SPECI CYNL 070713Z AUTO 00000KT 5SM VV009 M19/M22 A2966 RMK AO1 SLP116
SPECI CYNL 070707Z AUTO 00000KT 9SM FEW005 SCT015 OVC056 M19/M22 A2966 RMK AO1 SLP117
METAR CYNL 070700Z AUTO 00000KT 9SM FEW012 SCT017 OVC056 M19/M22 A2966 RMK AO1 SLP117
SPECI CYNL 070652Z AUTO 00000KT 8SM VV015 M19/M22 A2967 RMK AO1 SLP118
SPECI CYNL 070643Z AUTO 00000KT 6SM SCT015 OVC058 M19/M22 A2967 RMK AO1 SLP119
SPECI CYNL 070639Z AUTO 00000KT 8SM BKN016 OVC060 M19/M22 A2967 RMK AO1 SLP120
SPECI CYNL 070627Z AUTO 00000KT 9SM SCT017 OVC060 M19/M22 A2967 RMK AO1 SLP120
SPECI CYNL 070605Z AUTO 02003KT 3SM VV016 M19/M22 A2967 RMK AO1 SLP121
METAR CYNL 070600Z AUTO 04003KT 2SM VV016 M19/M22 A2967 RMK AO1 SLP121
SPECI CYNL 070559Z AUTO 04003KT 2SM VV017 M19/M22 A2968 RMK AO1 SLP121
SPECI CYNL 070557Z AUTO 04003KT 1 3/4SM VV017 M19/M22 A2968 RMK AO1 PRESFR SLP121
SPECI CYNL 070555Z AUTO 04003KT 2 1/2SM VV017 M19/M22 A2968 RMK AO1 PRESFR SLP122
SPECI CYNL 070540Z AUTO 06003KT 4SM VV024 M19/M22 A2968 RMK AO1 PRESFR SLP122
SPECI CYNL 070525Z AUTO 05002KT 9SM VV025 M19/M22 A2968 RMK AO1 PRESFR SLP123
SPECI CYNL 070506Z AUTO 00000KT 3SM VV016 M19/M22 A2968 RMK AO1 PRESFR SLP124
SPECI CYNL 070502Z AUTO 00000KT 2 1/2SM VV018 M19/M22 A2968 RMK AO1 PRESFR SLP124
METAR CYNL 070500Z AUTO 00000KT 3SM VV018 M19/M22 A2968 RMK AO1 PRESFR SLP124
SPECI CYNL 070442Z AUTO 00000KT 3SM FEW003 BKN016 OVC025 M19/M22 A2969 RMK AO1 PRESFR SLP126
SPECI CYNL 070441Z AUTO 00000KT 3SM VV014 M19/M22 A2969 RMK AO1 PRESFR SLP126
SPECI CYNL 070437Z AUTO 13002KT 2 1/2SM VV017 M19/M22 A2969 RMK AO1 PRESFR SLP126
SPECI CYNL 070434Z AUTO 12002KT 4SM VV015 M19/M22 A2969 RMK AO1 PRESFR SLP127
SPECI CYNL 070425Z AUTO 12002KT 4SM VV014 M19/M22 A2969 RMK AO1 PRESFR SLP128
METAR CYNL 070400Z AUTO 00000KT 5SM VV022 M19/M22 A2971 RMK AO1 PRESFR SLP133
SPECI CYNL 070340Z AUTO 00000KT 5SM VV024 M19/M23 A2971 RMK AO1 PRESFR SLP136
SPECI CYNL 070338Z AUTO 12002KT 4SM VV025 M19/M23 A2972 RMK AO1 PRESFR SLP136
SPECI CYNL 070331Z AUTO 14003KT 3SM VV021 M19/M23 A2972 RMK AO1 PRESFR SLP137
SPECI CYNL 070319Z AUTO 16003KT 2SM VV020 M20/M23 A2972 RMK AO1 PRESFR SLP138
SPECI CYNL 070318Z AUTO 16003KT 1 3/4SM VV021 M20/M23 A2972 RMK AO1 PRESFR SLP138
SPECI CYNL 070317Z AUTO 15004KT 2SM VV020 M20/M23 A2972 RMK AO1 PRESFR SLP138
SPECI CYNL 070307Z AUTO 14002KT 1 1/2SM VV017 M20/M23 A2973 RMK AO1 PRESFR SLP140
SPECI CYNL 070304Z AUTO 15004KT 1 1/4SM VV016 M20/M23 A2973 RMK AO1 PRESFR SLP141
METAR CYNL 070300Z AUTO 15002KT 1 3/4SM VV020 M20/M23 A2973 RMK AO1 PRESFR SLP142
SPECI CYNL 070259Z AUTO 15002KT 1 3/4SM VV022 M20/M23 A2973 RMK AO1 PRESFR SLP142
SPECI CYNL 070258Z AUTO 15002KT 2SM VV023 M20/M23 A2973 RMK AO1 PRESFR SLP142
SPECI CYNL 070256Z AUTO 14002KT 3SM VV024 M20/M23 A2973 RMK AO1 PRESFR SLP142
SPECI CYNL 070253Z AUTO 15003KT 2 1/2SM VV024 M20/M23 A2974 RMK AO1 PRESFR SLP142
SPECI CYNL 070251Z AUTO 00000KT 3SM VV024 M20/M23 A2974 RMK AO1 PRESFR SLP142
SPECI CYNL 070239Z AUTO 16004KT 4SM VV029 M20/M23 A2974 RMK AO1 PRESFR SLP144
SPECI CYNL 070237Z AUTO 16004KT 4SM VV030 M20/M23 A2974 RMK AO1 PRESFR SLP144
SPECI CYNL 070234Z AUTO 16004KT 5SM VV029 M20/M23 A2974 RMK AO1 PRESFR SLP144
SPECI CYNL 070233Z AUTO 16004KT 5SM VV030 M20/M23 A2974 RMK AO1 PRESFR SLP145
SPECI CYNL 070226Z AUTO 15004KT 4SM VV025 M20/M23 A2975 RMK AO1 PRESFR SLP146
SPECI CYNL 070220Z AUTO 15003KT 3SM VV021 M20/M23 A2975 RMK AO1 PRESFR SLP148
SPECI CYNL 070218Z AUTO 15003KT 2 1/2SM VV023 M20/M23 A2975 RMK AO1 PRESFR SLP149
SPECI CYNL 070217Z AUTO 15003KT 3SM VV024 M20/M23 A2976 RMK AO1 PRESFR SLP150
SPECI CYNL 070214Z AUTO 15003KT 6SM VV029 M20/M23 A2976 RMK AO1 PRESFR SLP151
SPECI CYNL 070206Z AUTO 16005KT 7SM VV030 M20/M23 A2976 RMK AO1 PRESFR SLP152
SPECI CYNL 070204Z AUTO 16004KT 6SM VV027 M20/M23 A2976 RMK AO1 PRESFR SLP152
METAR CYNL 070200Z AUTO 16003KT 7SM VV020 M20/M23 A2977 RMK AO1 PRESFR SLP153
SPECI CYNL 070149Z AUTO 16004KT 3SM VV015 M20/M24 A2977 RMK AO1 PRESFR SLP153
SPECI CYNL 070147Z AUTO 16004KT 3SM VV014 M20/M24 A2977 RMK AO1 PRESFR SLP153
SPECI CYNL 070127Z AUTO 14003KT 9SM FEW006 SCT008 BKN018 M21/M24 A2978 RMK AO1 PRESFR SLP158
SPECI CYNL 070125Z AUTO 00000KT 9SM FEW006 SCT008 BKN013 M21/M24 A2978 RMK AO1 PRESFR SLP158
SPECI CYNL 070122Z AUTO 14003KT 8SM VV009 M21/M24 A2978 RMK AO1 PRESFR SLP158
SPECI CYNL 070119Z AUTO 13003KT 7SM VV014 M21/M24 A2978 RMK AO1 PRESFR SLP158
SPECI CYNL 070112Z AUTO 13003KT 9SM VV015 M21/M24 A2979 RMK AO1 PRESFR SLP160
SPECI CYNL 070104Z AUTO 13002KT 8SM VV014 M21/M24 A2979 RMK AO1 PRESFR SLP162
METAR CYNL 070100Z AUTO 14003KT 7SM VV018 M21/M24 A2979 RMK AO1 PRESFR SLP162
SPECI CYNL 070053Z AUTO 00000KT 9SM VV015 M21/M24 A2980 RMK AO1 SLP164
SPECI CYNL 070051Z AUTO 00000KT 9SM VV011 M21/M24 A2980 RMK AO1 SLP164
SPECI CYNL 070050Z AUTO 00000KT 9SM VV009 M21/M24 A2980 RMK AO1 SLP165
SPECI CYNL 070038Z AUTO 17003KT 7SM VV014 M21/M24 A2980 RMK AO1 SLP166
SPECI CYNL 070030Z AUTO 18003KT 5SM VV024 M21/M24 A2981 RMK AO1 SLP167
SPECI CYNL 070023Z AUTO 18003KT 9SM VV029 M21/M25 A2981 RMK AO1 SLP168
SPECI CYNL 070018Z AUTO 18002KT 8SM VV030 M21/M25 A2981 RMK AO1 SLP169
SPECI CYNL 070015Z AUTO 17002KT 7SM VV025 M21/M25 A2981 RMK AO1 SLP170
METAR CYNL 070000Z AUTO 17003KT 5SM VV021 M21/M25 A2982 RMK AO1 SLP171
SPECI CYNL 062354Z AUTO 00000KT 6SM FEW005 SCT011 BKN024 M22/M25 A2982 RMK AO1 PRESFR SLP172
SPECI CYNL 062349Z AUTO 00000KT 6SM FEW005 SCT010 M22/M25 A2983 RMK AO1 PRESFR SLP173
SPECI CYNL 062341Z AUTO 00000KT 6SM FEW004 SCT010 BKN018 M22/M25 A2983 RMK AO1 PRESFR SLP174
SPECI CYNL 062334Z AUTO 00000KT 8SM FEW003 SCT014 M22/M25 A2983 RMK AO1 PRESFR SLP174
SPECI CYNL 062333Z AUTO 00000KT 5SM FEW003 SCT014 BKN018 M22/M25 A2983 RMK AO1 PRESFR SLP174
SPECI CYNL 062331Z AUTO 00000KT 3SM VV007 M22/M25 A2983 RMK AO1 PRESFR SLP174
SPECI CYNL 062330Z AUTO 00000KT 2 1/2SM VV009 M22/M25 A2983 RMK AO1 PRESFR SLP174
SPECI CYNL 062326Z AUTO 00000KT 2 1/2SM VV014 M22/M25 A2983 RMK AO1 PRESFR SLP174
SPECI CYNL 062321Z AUTO 00000KT 2 1/2SM VV016 M22/M26 A2983 RMK AO1 PRESFR SLP175
METAR CYNL 062300Z AUTO 00000KT 9SM CLR M24/M27 A2984 RMK AO1 PRESFR SLP180
METAR CYNL 062200Z AUTO 00000KT 9SM FEW088 M23/M26 A2986 RMK AO1 SLP185
METAR CYNL 062100Z AUTO 27003KT 9SM CLR M21/M24 A2987 RMK AO1 SLP185
METAR CYNL 062000Z AUTO 29004KT 9SM CLR M19/M23 A2988 RMK AO1 SLP187
METAR CYNL 061900Z AUTO 29006KT 9SM CLR M19/M23 A2988 RMK AO1 SLP189
METAR CYNL 061800Z AUTO 28005KT 9SM CLR M19/M22 A2989 RMK AO1 SLP191
METAR CYNL 061700Z AUTO 29006KT 9SM CLR M19/M22 A2989 RMK AO1 SLP194
SPECI CYNL 061604Z AUTO 28006KT 9SM SCT003 M19/M22 A2989 RMK AO1 SLP193
SPECI CYNL 061602Z AUTO 28006KT 9SM VV003 M19/M22 A2989 RMK AO1 SLP193
METAR CYNL 061600Z AUTO 29006KT 7SM FEW003 M19/M22 A2988 RMK AO1 SLP193
SPECI CYNL 061557Z AUTO 29005KT 9SM FEW004 M19/M22 A2988 RMK AO1 SLP192
SPECI CYNL 061539Z AUTO 29007KT 9SM SCT016 M19/M22 A2988 RMK AO1 SLP190
METAR CYNL 061500Z AUTO 29006KT 9SM BKN016 M18/M21 A2987 RMK AO1 SLP185
SPECI CYNL 061451Z AUTO 28008KT 9SM BKN015 M18/M21 A2987 RMK AO1 SLP186
SPECI CYNL 061448Z AUTO 29008KT 9SM BKN014 M18/M21 A2986 RMK AO1 SLP185
SPECI CYNL 061434Z AUTO 28007KT 9SM SCT012 M18/M21 A2986 RMK AO1 SLP183
SPECI CYNL 061431Z AUTO 29010KT 9SM BKN012 M18/M21 A2986 RMK AO1 SLP183
METAR CYNL 061400Z AUTO 29006KT 9SM BKN058 M18/M21 A2986 RMK AO1 SLP182
SPECI CYNL 061335Z AUTO 28006KT 9SM SCT019 OVC058 M17/M20 A2985 RMK AO1 SLP181
METAR CYNL 061300Z AUTO 29009KT 9SM BKN020 OVC058 M17/M20 A2985 RMK AO1 SLP179
SPECI CYNL 061246Z AUTO 29007KT 9SM BKN021 OVC058 M17/M20 A2984 RMK AO1 SLP180
METAR CYNL 061200Z AUTO 29006KT 9SM FEW043 OVC056 M16/M19 A2984 RMK AO1 SLP178
METAR CYNL 061100Z AUTO ///// 9SM FEW011 OVC040 M15/M18 A2983 RMK AO1 SLP177
METAR CYNL 061000Z AUTO 27006KT 9SM OVC045 M14/M17 A2983 RMK AO1 SLP175
SPECI CYNL 060937Z AUTO 24003KT 9SM FEW003 SCT011 OVC048 M15/M17 A2983 RMK AO1 SLP172
SPECI CYNL 060932Z AUTO 24003KT 4SM FEW003 SCT011 BKN018 M15/M17 A2983 RMK AO1 SLP172
SPECI CYNL 060931Z AUTO 24003KT 2 1/2SM FEW003 SCT011 BKN018 M15/M17 A2983 RMK AO1 SLP172
SPECI CYNL 060930Z AUTO 24003KT 1 3/4SM FEW003 SCT011 BKN018 M15/M17 A2983 RMK AO1 SLP172
SPECI CYNL 060925Z AUTO 25002KT 1 1/4SM VV014 M15/M17 A2983 RMK AO1 SLP172
SPECI CYNL 060922Z AUTO 24003KT 1 3/4SM VV018 M15/M17 A2983 RMK AO1 SLP173
SPECI CYNL 060920Z AUTO 24003KT 2 1/2SM VV019 M15/M17 A2983 RMK AO1 SLP173
SPECI CYNL 060910Z AUTO 26002KT 9SM FEW003 SCT013 BKN017 M15/M17 A2983 RMK AO1 SLP174
SPECI CYNL 060902Z AUTO 26003KT 3SM VV017 M15/M17 A2983 RMK AO1 SLP174
METAR CYNL 060900Z AUTO 25004KT 2 1/2SM VV016 M15/M17 A2983 RMK AO1 SLP173
SPECI CYNL 060847Z AUTO 24004KT 3SM VV015 M15/M17 A2983 RMK AO1 SLP171
SPECI CYNL 060842Z AUTO 24004KT 2SM VV014 M15/M17 A2983 RMK AO1 SLP172
SPECI CYNL 060837Z AUTO 24004KT 2 1/2SM VV020 M15/M18 A2984 RMK AO1 SLP172
SPECI CYNL 060834Z AUTO 23004KT 4SM VV024 M15/M18 A2984 RMK AO1 SLP172
SPECI CYNL 060833Z AUTO 24004KT 5SM VV025 M15/M18 A2984 RMK AO1 SLP172
SPECI CYNL 060827Z AUTO 23004KT 6SM VV016 M15/M18 A2983 RMK AO1 SLP172
SPECI CYNL 060822Z AUTO 24003KT 3SM VV013 M15/M18 A2984 RMK AO1 SLP172
SPECI CYNL 060820Z AUTO 24004KT 2SM VV014 M15/M18 A2984 RMK AO1 SLP172
SPECI CYNL 060816Z AUTO 23003KT 1 3/4SM VV020 M15/M18 A2984 RMK AO1 SLP172
SPECI CYNL 060814Z AUTO 24003KT 2 1/2SM VV022 M16/M18 A2984 RMK AO1 SLP173
SPECI CYNL 060807Z AUTO 24003KT 3SM VV018 M16/M18 A2984 RMK AO1 SLP173
SPECI CYNL 060804Z AUTO 24003KT 2 1/2SM VV020 M16/M18 A2984 RMK AO1 SLP175
SPECI CYNL 060801Z AUTO 23003KT 3SM VV020 M16/M18 A2984 RMK AO1 SLP174
METAR CYNL 060800Z AUTO 24003KT 2 1/2SM VV020 M16/M19 A2984 RMK AO1 SLP175
SPECI CYNL 060758Z AUTO 23003KT 2SM VV019 M16/M19 A2984 RMK AO1 SLP176
SPECI CYNL 060751Z AUTO 23004KT 1 3/4SM VV017 M16/M19 A2984 RMK AO1 SLP177
SPECI CYNL 060733Z AUTO 23003KT 2 1/2SM VV020 M16/M19 A2984 RMK AO1 SLP178
SPECI CYNL 060727Z AUTO 23003KT 3SM VV019 M17/M19 A2984 RMK AO1 SLP177
SPECI CYNL 060725Z AUTO 23003KT 2SM VV017 M17/M19 A2984 RMK AO1 SLP177
SPECI CYNL 060721Z AUTO 22004KT 1 3/4SM VV018 M17/M19 A2984 RMK AO1 SLP177
SPECI CYNL 060720Z AUTO 22003KT 2 1/2SM VV019 M17/M19 A2984 RMK AO1 SLP177
SPECI CYNL 060715Z AUTO 23004KT 5SM VV015 M17/M19 A2984 RMK AO1 SLP179
SPECI CYNL 060711Z AUTO 22004KT 6SM VV010 M17/M20 A2984 RMK AO1 SLP179
SPECI CYNL 060702Z AUTO 22004KT 3SM VV009 M17/M19 A2985 RMK AO1 SLP180
SPECI CYNL 060701Z AUTO 22004KT 3SM VV010 M17/M19 A2985 RMK AO1 SLP180
METAR CYNL 060700Z AUTO 23004KT 2 1/2SM VV011 M17/M19 A2985 RMK AO1 SLP180
SPECI CYNL 060659Z AUTO 23004KT 2 1/2SM VV012 M17/M19 A2985 RMK AO1 SLP180
SPECI CYNL 060658Z AUTO 23004KT 3SM VV013 M17/M19 A2985 RMK AO1 SLP180
SPECI CYNL 060652Z AUTO 22004KT 4SM VV015 M17/M19 A2985 RMK AO1 SLP180
SPECI CYNL 060649Z AUTO 22003KT 3SM VV013 M17/M19 A2985 RMK AO1 SLP180
SPECI CYNL 060645Z AUTO 22003KT 2SM VV012 M17/M19 A2985 RMK AO1 SLP182
SPECI CYNL 060639Z AUTO 22004KT 1 3/4SM VV014 M17/M19 A2985 RMK AO1 SLP182
SPECI CYNL 060638Z AUTO 22004KT 2SM VV014 M17/M19 A2986 RMK AO1 SLP183
SPECI CYNL 060634Z AUTO 23003KT 2 1/2SM VV017 M17/M19 A2985 RMK AO1 SLP182
SPECI CYNL 060628Z AUTO 22003KT 6SM VV015 M17/M20 A2986 RMK AO1 SLP184
SPECI CYNL 060620Z AUTO 23004KT 7SM VV013 M17/M20 A2986 RMK AO1 SLP185
SPECI CYNL 060609Z AUTO 23004KT 9SM VV015 M17/M20 A2986 RMK AO1 SLP185
SPECI CYNL 060606Z AUTO 23004KT 4SM VV011 M17/M20 A2986 RMK AO1 SLP185
SPECI CYNL 060601Z AUTO 23004KT 2 1/2SM VV012 M17/M20 A2986 RMK AO1 SLP185
METAR CYNL 060600Z AUTO 23004KT 3SM VV012 M17/M20 A2986 RMK AO1 SLP185
SPECI CYNL 060557Z AUTO 23003KT 3SM VV012 M17/M20 A2986 RMK AO1 SLP187
SPECI CYNL 060556Z AUTO 23003KT 2 1/2SM VV012 M17/M20 A2986 RMK AO1 SLP187
SPECI CYNL 060553Z AUTO 22003KT 1 3/4SM VV013 M17/M20 A2986 RMK AO1 SLP187
SPECI CYNL 060552Z AUTO 23004KT 2 1/2SM VV015 M17/M20 A2986 RMK AO1 SLP188
SPECI CYNL 060546Z AUTO 22004KT 7SM VV015 M17/M20 A2987 RMK AO1 SLP189
SPECI CYNL 060531Z AUTO 22004KT 5SM FEW003 SCT007 BKN010 M18/M21 A2987 RMK AO1 SLP191
SPECI CYNL 060525Z AUTO 23003KT 9SM FEW003 BKN007 BKN014 M18/M21 A2987 RMK AO1 SLP192
SPECI CYNL 060524Z AUTO 23003KT 9SM VV004 M18/M21 A2987 RMK AO1 SLP193
SPECI CYNL 060513Z AUTO 00000KT 9SM VV008 M18/M21 A2987 RMK AO1 SLP193
SPECI CYNL 060508Z AUTO 00000KT 9SM SCT006 BKN012 BKN020 M18/M21 A2988 RMK AO1 SLP194
SPECI CYNL 060504Z AUTO 00000KT 5SM VV009 M18/M21 A2987 RMK AO1 SLP193
SPECI CYNL 060503Z AUTO 00000KT 3SM VV010 M18/M21 A2987 RMK AO1 SLP194
SPECI CYNL 060501Z AUTO 00000KT 2 1/2SM VV013 M18/M21 A2988 RMK AO1 SLP194
METAR CYNL 060500Z AUTO 00000KT 3SM VV014 M18/M21 A2988 RMK AO1 SLP194
SPECI CYNL 060459Z AUTO 00000KT 3SM VV014 M18/M21 A2988 RMK AO1 SLP196
SPECI CYNL 060454Z AUTO ///// 2 1/2SM VV010 M18/M21 A2988 RMK AO1 PRESFR SLP199
SPECI CYNL 060453Z AUTO 00000KT 2SM VV009 M18/M21 A2988 RMK AO1 PRESFR SLP199
SPECI CYNL 060452Z AUTO 00000KT 2SM VV011 M18/M21 A2988 RMK AO1 PRESFR SLP199
SPECI CYNL 060451Z AUTO 00000KT 1 3/4SM VV012 M18/M21 A2988 RMK AO1 PRESFR SLP199
SPECI CYNL 060450Z AUTO 00000KT 2SM VV014 M18/M21 A2988 RMK AO1 PRESFR SLP198
SPECI CYNL 060449Z AUTO 00000KT 2 1/2SM VV016 M18/M21 A2988 RMK AO1 PRESFR SLP198
SPECI CYNL 060445Z AUTO 00000KT 9SM VV018 M18/M21 A2988 RMK AO1 PRESFR SLP199
SPECI CYNL 060412Z AUTO 00000KT 9SM FEW006 SCT013 BKN039 M18/M21 A2989 RMK AO1 PRESFR SLP203
SPECI CYNL 060408Z AUTO 00000KT 9SM FEW005 SCT011 BKN020 M18/M21 A2989 RMK AO1 PRESFR SLP202
SPECI CYNL 060404Z AUTO 00000KT 8SM FEW005 SCT012 BKN014 M18/M21 A2989 RMK AO1 PRESFR SLP202
SPECI CYNL 060401Z AUTO 00000KT 4SM VV009 M18/M21 A2989 RMK AO1 PRESFR SLP202
METAR CYNL 060400Z AUTO 00000KT 4SM VV010 M18/M21 A2989 RMK AO1 PRESFR SLP202
SPECI CYNL 060357Z AUTO 00000KT 3SM VV012 M18/M21 A2989 RMK AO1 SLP207
SPECI CYNL 060356Z AUTO 00000KT 2 1/2SM VV014 M18/M21 A2989 RMK AO1 SLP207
SPECI CYNL 060345Z AUTO 00000KT 3SM VV015 M18/M21 A2989 RMK AO1 SLP208
SPECI CYNL 060344Z AUTO 00000KT 2 1/2SM VV015 M18/M21 A2989 RMK AO1 SLP208
SPECI CYNL 060342Z AUTO 00000KT 4SM VV015 M18/M21 A2990 RMK AO1 SLP209
SPECI CYNL 060341Z AUTO 00000KT 2 1/2SM VV016 M18/M21 A2990 RMK AO1 SLP209
SPECI CYNL 060340Z AUTO 00000KT 1 3/4SM VV016 M18/M21 A2990 RMK AO1 SLP209
SPECI CYNL 060338Z AUTO 00000KT 1 1/4SM VV017 M18/M21 A2990 RMK AO1 SLP209
SPECI CYNL 060337Z AUTO 00000KT 1 3/4SM VV019 M18/M21 A2990 RMK AO1 SLP209
SPECI CYNL 060336Z AUTO 00000KT 2 1/2SM VV021 M18/M21 A2990 RMK AO1 SLP209
SPECI CYNL 060330Z AUTO 00000KT 3SM VV023 M18/M21 A2990 RMK AO1 SLP210
SPECI CYNL 060327Z AUTO 00000KT 2 1/2SM VV022 M18/M21 A2990 RMK AO1 SLP211
SPECI CYNL 060319Z AUTO 00000KT 3SM VV020 M18/M21 A2991 RMK AO1 SLP212
SPECI CYNL 060314Z AUTO 00000KT 2 1/2SM VV022 M18/M21 A2991 RMK AO1 SLP213
SPECI CYNL 060313Z AUTO 00000KT 3SM VV024 M18/M21 A2991 RMK AO1 SLP213
SPECI CYNL 060311Z AUTO 00000KT 5SM VV028 M19/M21 A2991 RMK AO1 SLP214
METAR CYNL 060300Z AUTO 00000KT 4SM FEW011 OVC038 M19/M22 A2991 RMK AO1 SLP216
SPECI CYNL 060252Z AUTO 00000KT 4SM FEW011 SCT016 OVC038 M19/M22 A2992 RMK AO1 SLP218
SPECI CYNL 060242Z AUTO 00000KT 4SM FEW010 SCT016 BKN026 M19/M22 A2992 RMK AO1 SLP219
SPECI CYNL 060241Z AUTO 00000KT 3SM FEW010 BKN016 OVC038 M19/M22 A2992 RMK AO1 SLP219
SPECI CYNL 060238Z AUTO 00000KT 2SM FEW010 BKN015 OVC037 M20/M23 A2992 RMK AO1 SLP218
SPECI CYNL 060232Z AUTO 00000KT 2SM VV014 M20/M23 A2992 RMK AO1 SLP219
SPECI CYNL 060227Z AUTO 25003KT 2 1/2SM VV016 M20/M23 A2992 RMK AO1 SLP221
SPECI CYNL 060224Z AUTO 24003KT 3SM VV016 M20/M23 A2992 RMK AO1 SLP221
SPECI CYNL 060223Z AUTO 24003KT 2 1/2SM VV017 M20/M23 A2992 RMK AO1 SLP221
SPECI CYNL 060220Z AUTO 23002KT 4SM VV021 M20/M23 A2992 RMK AO1 SLP221
METAR CYNL 060200Z AUTO 21003KT 9SM OVC034 M20/M23 A2993 RMK AO1 SLP223
METAR CYNL 060100Z AUTO 00000KT 9SM OVC038 M21/M24 A2994 RMK AO1 SLP230
METAR CYNL 060000Z AUTO 00000KT 9SM OVC043 M24/M27 A2996 RMK AO1 SLP238
METAR CYNL 052300Z AUTO 16003KT 9SM CLR M25/M29 A2997 RMK AO1 SLP242
METAR CYNL 052200Z AUTO 00000KT 9SM CLR M22/M25 A2998 RMK AO1 SLP239
METAR CYNL 052100Z AUTO 00000KT 9SM SCT015 M20/M23 A2998 RMK AO1 SLP234
SPECI CYNL 052059Z AUTO 00000KT 9SM SCT015 M20/M23 A2998 RMK AO1 SLP234
METAR CYNL 052000Z AUTO 21003KT 9SM OVC015 M21/M24 A2999 RMK AO1 SLP240
SPECI CYNL 051906Z AUTO 22003KT 9SM BKN017 M21/M24 A3000 RMK AO1 SLP245
METAR CYNL 051900Z AUTO 23003KT 9SM SCT017 M21/M24 A3001 RMK AO1 SLP246
METAR CYNL 051800Z AUTO 21002KT 9SM CLR M22/M26 A3002 RMK AO1 SLP251
METAR CYNL 051700Z AUTO 22003KT 9SM CLR M25/M29 A3002 RMK AO1 SLP257
METAR CYNL 051600Z AUTO ///// 9SM CLR M28/M32 A3002 RMK AO1 SLP261
METAR CYNL 051500Z AUTO 21003KT 9SM CLR M29/M33 A3002 RMK AO1 SLP257
METAR CYNL 051400Z AUTO 21002KT 9SM CLR M29/M33 A3001 RMK AO1 SLP255
METAR CYNL 051300Z AUTO 22004KT 9SM CLR M28/M31 A3001 RMK AO1 SLP252
METAR CYNL 051200Z AUTO 00000KT 9SM CLR M26/M30 A3000 RMK AO1 SLP247
METAR CYNL 051100Z AUTO 24003KT 9SM CLR M27/M30 A3000 RMK AO1 SLP245
METAR CYNL 051000Z AUTO 26003KT 9SM CLR M25/M28 A3000 RMK AO1 SLP241
METAR CYNL 050900Z AUTO 25002KT 9SM CLR M25/M29 A2999 RMK AO1 SLP237
METAR CYNL 050800Z AUTO 26002KT 9SM CLR M25/M29 A2998 RMK AO1 SLP233
METAR CYNL 050700Z AUTO 25004KT 9SM CLR M25/M28 A2998 RMK AO1 SLP229
METAR CYNL 050600Z AUTO ///// 9SM CLR M25/M29 A2996 RMK AO1 SLP225
METAR CYNL 050500Z AUTO 31003KT 9SM CLR M25/M28 A2996 RMK AO1 PRESRR SLP222
METAR CYNL 050400Z AUTO 00000KT 9SM BKN094 M23/M26 A2993 RMK AO1 SLP211
METAR CYNL 050300Z AUTO 00000KT 9SM BKN094 M22/M25 A2992 RMK AO1 SLP206
METAR CYNL 050200Z AUTO ///// 9SM BKN094 M22/M25 A2991 RMK AO1 SLP197
METAR CYNL 050100Z AUTO ///// 9SM FEW110 M22/M25 A2990 RMK AO1 SLP195
METAR CYNL 050000Z AUTO 32006KT 9SM CLR M20/M23 A2989 RMK AO1 PRESRR SLP186
METAR CYNL 042300Z AUTO 33005KT 9SM BKN110 M19/M22 A2986 RMK AO1 PRESRR SLP174
METAR CYNL 042200Z AUTO 33009KT 9SM SCT011 M18/M21 A2984 RMK AO1 PRESRR SLP164
SPECI CYNL 042133Z AUTO 33005KT 9SM BKN011 M17/M20 A2983 RMK AO1 PRESRR SLP162
METAR CYNL 042100Z AUTO 33008KT 9SM CLR M17/M20 A2982 RMK AO1 PRESRR SLP156
METAR CYNL 042000Z AUTO 31005KT 9SM BKN052 M17/M20 A2979 RMK AO1 PRESRR SLP147
SPECI CYNL 041914Z AUTO 32005KT 9SM FEW007 SCT010 M17/M20 A2977 RMK AO1 PRESRR SLP139
SPECI CYNL 041913Z AUTO 32004KT 9SM FEW007 SCT011 BKN015 M17/M20 A2977 RMK AO1 PRESRR SLP139
SPECI CYNL 041908Z AUTO 31007KT 9SM FEW007 BKN011 BKN015 M17/M20 A2977 RMK AO1 PRESRR SLP138
SPECI CYNL 041906Z AUTO 31007KT 9SM VV009 M17/M20 A2977 RMK AO1 PRESRR SLP138
METAR CYNL 041900Z AUTO 31007KT 9SM BKN011 M17/M20 A2977 RMK AO1 PRESRR SLP138
SPECI CYNL 041846Z AUTO 31006KT 9SM FEW009 BKN011 M17/M20 A2976 RMK AO1 PRESRR SLP136
SPECI CYNL 041841Z AUTO 30006KT 9SM BKN011 M17/M20 A2976 RMK AO1 PRESRR SLP135
METAR CYNL 041800Z AUTO 31004KT 9SM CLR M17/M20 A2974 RMK AO1 PRESRR SLP129
SPECI CYNL 041703Z AUTO 31007KT 9SM SCT009 M16/M19 A2972 RMK AO1 PRESRR SLP121
SPECI CYNL 041701Z AUTO 31006KT 9SM BKN009 M16/M19 A2972 RMK AO1 PRESRR SLP121
METAR CYNL 041700Z AUTO 31006KT 9SM SCT009 M16/M19 A2972 RMK AO1 PRESRR SLP120
SPECI CYNL 041636Z AUTO 31006KT 9SM FEW005 SCT010 M16/M18 A2971 RMK AO1 PRESRR SLP119
SPECI CYNL 041610Z AUTO 31005KT 9SM SCT005 OVC010 M15/M18 A2969 RMK AO1 PRESRR SLP114
SPECI CYNL 041602Z AUTO ///// 9SM VV007 M15/M18 A2969 RMK AO1 PRESRR SLP111
METAR CYNL 041600Z AUTO ///// 9SM FEW005 BKN011 M15/M18 A2968 RMK AO1 PRESRR SLP110
SPECI CYNL 041558Z AUTO ///// 9SM FEW005 BKN010 M15/M18 A2968 RMK AO1 PRESRR SLP110
SPECI CYNL 041538Z AUTO ///// 9SM BKN011 M15/M17 A2968 RMK AO1 PRESRR SLP108
SPECI CYNL 041537Z AUTO ///// 9SM SCT011 BKN015 M15/M17 A2968 RMK AO1 PRESRR SLP108
SPECI CYNL 041525Z AUTO 31007KT 9SM SCT013 M14/M17 A2967 RMK AO1 PRESRR SLP105
SPECI CYNL 041524Z AUTO 31007KT 9SM BKN012 M14/M17 A2967 RMK AO1 PRESRR SLP104
SPECI CYNL 041523Z AUTO ///// 9SM FEW009 SCT012 BKN015 M14/M17 A2967 RMK AO1 PRESRR SLP104
SPECI CYNL 041516Z AUTO ///// 9SM FEW009 BKN012 OVC015 M14/M17 A2966 RMK AO1 PRESRR SLP102
METAR CYNL 041500Z AUTO ///// 9SM BKN012 OVC014 M13/M16 A2966 RMK AO1 PRESRR SLP100
SPECI CYNL 041459Z AUTO ///// 9SM BKN012 OVC015 M13/M16 A2966 RMK AO1 PRESRR SLP100
SPECI CYNL 041458Z AUTO ///// 9SM SCT012 OVC015 M13/M16 A2966 RMK AO1 PRESRR SLP099
SPECI CYNL 041453Z AUTO 32006KT 9SM FEW007 OVC014 M13/M16 A2966 RMK AO1 PRESRR SLP099
SPECI CYNL 041452Z AUTO 32006KT 9SM FEW007 OVC015 M13/M16 A2966 RMK AO1 PRESRR SLP099
SPECI CYNL 041446Z AUTO 30006KT 3SM FEW007 OVC014 M13/M16 A2965 RMK AO1 PRESRR SLP097
SPECI CYNL 041442Z AUTO 31004KT 2 1/2SM FEW007 OVC014 M13/M16 A2965 RMK AO1 PRESRR SLP096
SPECI CYNL 041441Z AUTO 31004KT 3SM FEW007 OVC014 M13/M16 A2965 RMK AO1 PRESRR SLP096
SPECI CYNL 041426Z AUTO ///// 3SM FEW007 OVC015 M13/M16 A2964 RMK AO1 PRESRR SLP092
SPECI CYNL 041413Z AUTO ///// 5SM FEW007 OVC014 M13/M16 A2963 RMK AO1 PRESRR SLP091
METAR CYNL 041400Z AUTO ///// 9SM OVC014 M13/M15 A2963 RMK AO1 PRESRR SLP088
SPECI CYNL 041343Z AUTO ///// 4SM OVC013 M12/M15 A2962 RMK AO1 SLP085
SPECI CYNL 041342Z AUTO ///// 2SM VV013 M12/M15 A2962 RMK AO1 SLP085
SPECI CYNL 041337Z AUTO ///// 1SM VV014 M12/M15 A2961 RMK AO1 SLP084
SPECI CYNL 041335Z AUTO ///// 1 3/4SM VV014 M12/M15 A2961 RMK AO1 SLP083
SPECI CYNL 041334Z AUTO ///// 2 1/2SM VV014 M12/M15 A2961 RMK AO1 SLP083
SPECI CYNL 041333Z AUTO ///// 2 1/2SM VV015 M12/M15 A2961 RMK AO1 SLP083
SPECI CYNL 041329Z AUTO ///// 2SM VV013 M12/M15 A2961 RMK AO1 SLP083
SPECI CYNL 041328Z AUTO ///// 1 1/2SM VV013 M12/M14 A2961 RMK AO1 SLP082
SPECI CYNL 041315Z AUTO ///// 1 1/4SM VV013 M12/M14 A2961 RMK AO1 SLP080
SPECI CYNL 041310Z AUTO ///// 1 1/2SM VV014 M12/M14 A2960 RMK AO1 SLP079
SPECI CYNL 041309Z AUTO ///// 1 3/4SM VV015 M12/M14 A2960 RMK AO1 SLP079
SPECI CYNL 041308Z AUTO ///// 2SM OVC016 M12/M14 A2960 RMK AO1 SLP079
METAR CYNL 041300Z AUTO ///// 9SM OVC016 M11/M14 A2960 RMK AO1 SLP078
SPECI CYNL 041255Z AUTO ///// 5SM VV015 M11/M14 A2960 RMK AO1 PRESRR SLP078
SPECI CYNL 041254Z AUTO ///// 2 1/2SM VV015 M11/M14 A2960 RMK AO1 PRESRR SLP077
SPECI CYNL 041250Z AUTO ///// 1 1/2SM VV017 M11/M14 A2960 RMK AO1 PRESRR SLP076
SPECI CYNL 041248Z AUTO ///// 2 1/2SM VV018 M11/M14 A2959 RMK AO1 PRESRR SLP076
METAR CYNL 041200Z AUTO ///// 9SM SCT014 OVC017 M11/M14 A2958 RMK AO1 PRESRR SLP071
SPECI CYNL 041159Z AUTO ///// 9SM BKN014 OVC019 M11/M14 A2958 RMK AO1 PRESRR SLP071
SPECI CYNL 041157Z AUTO ///// 9SM SCT013 OVC017 M11/M14 A2958 RMK AO1 SLP071
METAR CYNL 041100Z AUTO ///// 7SM BKN011 OVC015 M10/M13 A2956 RMK AO1 SLP061
METAR CYNL 041000Z AUTO 30006KT 9SM BKN011 OVC018 M10/M12 A2955 RMK AO1 PRESRR SLP058
SPECI CYNL 040948Z AUTO ///// 9SM SCT011 BKN014 OVC020 M10/M13 A2954 RMK AO1 SLP056
METAR CYNL 040900Z AUTO 30008KT 9SM OVC019 M10/M12 A2953 RMK AO1 SLP050
SPECI CYNL 040818Z AUTO 29007KT 9SM SCT013 BKN017 OVC020 M10/M12 A2951 RMK AO1 PRESRR SLP045
METAR CYNL 040800Z AUTO 30008KT 9SM FEW009 BKN013 OVC019 M10/M12 A2951 RMK AO1 PRESRR SLP043
SPECI CYNL 040752Z AUTO 29007G17KT 7SM FEW009 BKN014 OVC019 M10/M12 A2951 RMK AO1 SLP043
SPECI CYNL 040746Z AUTO 29010G17KT 3SM FEW009 OVC018 M10/M12 A2950 RMK AO1 SLP042
SPECI CYNL 040745Z AUTO 30010G17KT 2 1/2SM FEW009 OVC019 M10/M12 A2950 RMK AO1 SLP042
SPECI CYNL 040744Z AUTO 29008KT 2SM VV017 M10/M12 A2950 RMK AO1 SLP042
SPECI CYNL 040742Z AUTO 29006KT 1 1/4SM VV015 M10/M12 A2950 RMK AO1 SLP042
SPECI CYNL 040741Z AUTO 30006KT 1 1/4SM VV014 M10/M12 A2950 RMK AO1 SLP042
SPECI CYNL 040738Z AUTO 29006KT 1 3/4SM VV014 M10/M12 A2950 RMK AO1 SLP041
SPECI CYNL 040737Z AUTO 29006KT 2SM VV014 M10/M12 A2950 RMK AO1 SLP041
SPECI CYNL 040733Z AUTO 30008KT 2 1/2SM VV018 M10/M12 A2950 RMK AO1 SLP041
SPECI CYNL 040728Z AUTO 30008KT 3SM VV019 M10/M12 A2950 RMK AO1 SLP040
SPECI CYNL 040726Z AUTO 30009KT 2 1/2SM VV020 M10/M12 A2950 RMK AO1 SLP040
SPECI CYNL 040719Z AUTO 29008KT 3SM VV021 M09/M12 A2949 RMK AO1 SLP039
SPECI CYNL 040716Z AUTO 29007KT 2 1/2SM VV023 M09/M11 A2949 RMK AO1 SLP038
SPECI CYNL 040715Z AUTO 29006KT 3SM VV024 M09/M11 A2949 RMK AO1 SLP038
METAR CYNL 040700Z AUTO 29007KT 7SM FEW010 BKN025 M09/M11 A2949 RMK AO1 SLP036
SPECI CYNL 040653Z AUTO 29009KT 9SM FEW010 BKN025 BKN036 M09/M11 A2949 RMK AO1 SLP035
SPECI CYNL 040642Z AUTO 29009KT 9SM SCT009 BKN024 M09/M11 A2948 RMK AO1 SLP033
SPECI CYNL 040641Z AUTO 30009KT 9SM SCT009 BKN029 M09/M11 A2948 RMK AO1 SLP033
SPECI CYNL 040638Z AUTO 30008KT 9SM SCT010 BKN029 M09/M11 A2948 RMK AO1 SLP033
SPECI CYNL 040624Z AUTO 29008KT 9SM BKN010 BKN012 OVC029 M09/M11 A2948 RMK AO1 SLP031
SPECI CYNL 040615Z AUTO 29006KT 9SM BKN009 OVC012 M09/M11 A2947 RMK AO1 SLP031
SPECI CYNL 040603Z AUTO 30007KT 9SM SCT007 OVC010 M09/M11 A2947 RMK AO1 SLP030
METAR CYNL 040600Z AUTO 30006KT 9SM FEW006 OVC009 M09/M11 A2947 RMK AO1 SLP030
SPECI CYNL 040537Z AUTO 00000KT 3SM OVC005 M11/M13 A2946 RMK AO1 SLP029
SPECI CYNL 040522Z AUTO 24002KT 2SM OVC005 M11/M13 A2946 RMK AO1 SLP029
SPECI CYNL 040514Z AUTO 23002KT 3SM OVC006 M11/M13 A2946 RMK AO1 SLP029
SPECI CYNL 040510Z AUTO 00000KT 2 1/2SM OVC006 M11/M13 A2946 RMK AO1 SLP029
METAR CYNL 040500Z AUTO 00000KT 9SM OVC007 M11/M14 A2946 RMK AO1 SLP028
SPECI CYNL 040425Z AUTO 00000KT 9SM BKN009 OVC012 M12/M14 A2945 RMK AO1 SLP028
METAR CYNL 040400Z AUTO 16003KT 9SM BKN013 OVC033 M12/M14 A2945 RMK AO1 SLP027
SPECI CYNL 040357Z AUTO ///// 9SM BKN013 OVC033 M12/M14 A2945 RMK AO1 SLP027
SPECI CYNL 040352Z AUTO 16002KT 4SM FEW007 SCT013 BKN017 M12/M14 A2945 RMK AO1 SLP027
SPECI CYNL 040350Z AUTO ///// 3SM FEW007 BKN014 OVC034 M12/M14 A2945 RMK AO1 SLP026
SPECI CYNL 040347Z AUTO ///// 2SM FEW007 BKN014 OVC036 M12/M14 A2945 RMK AO1 SLP026
SPECI CYNL 040346Z AUTO ///// 2SM VV014 M12/M14 A2945 RMK AO1 SLP026
SPECI CYNL 040344Z AUTO ///// 1 3/4SM VV014 M12/M14 A2945 RMK AO1 SLP026
SPECI CYNL 040336Z AUTO ///// 2SM VV012 M12/M14 A2945 RMK AO1 SLP026
SPECI CYNL 040335Z AUTO ///// 1 1/2SM VV014 M12/M14 A2945 RMK AO1 SLP026
SPECI CYNL 040333Z AUTO ///// 1 1/2SM VV016 M12/M14 A2945 RMK AO1 SLP026
SPECI CYNL 040332Z AUTO ///// 2SM VV016 M12/M14 A2945 RMK AO1 SLP026
SPECI CYNL 040329Z AUTO 15004KT 4SM VV015 M12/M14 A2945 RMK AO1 SLP026
SPECI CYNL 040328Z AUTO ///// 2SM VV015 M12/M14 A2945 RMK AO1 SLP026
SPECI CYNL 040327Z AUTO ///// 1SM VV014 M12/M14 A2945 RMK AO1 SLP026
SPECI CYNL 040326Z AUTO ///// 3/4SM VV013 M12/M14 A2945 RMK AO1 SLP026
SPECI CYNL 040324Z AUTO 15004KT 2 1/2SM VV012 M12/M14 A2945 RMK AO1 SLP026
SPECI CYNL 040321Z AUTO 16003KT 4SM VV010 M12/M14 A2945 RMK AO1 SLP026
SPECI CYNL 040319Z AUTO ///// 8SM VV008 M12/M14 A2945 RMK AO1 SLP026
SPECI CYNL 040316Z AUTO ///// 7SM VV014 M12/M14 A2945 RMK AO1 SLP026
SPECI CYNL 040312Z AUTO 15004KT 3SM VV020 M12/M14 A2945 RMK AO1 SLP026
SPECI CYNL 040309Z AUTO 16003KT 2 1/2SM VV022 M12/M14 A2945 RMK AO1 SLP026
SPECI CYNL 040308Z AUTO 15003KT 4SM VV024 M12/M14 A2945 RMK AO1 SLP026
METAR CYNL 040300Z AUTO 16003KT 4SM VV025 M12/M14 A2945 RMK AO1 SLP027
SPECI CYNL 040257Z AUTO 17004KT 3SM VV020 M12/M14 A2945 RMK AO1 SLP027
SPECI CYNL 040254Z AUTO 17003KT 2SM VV015 M12/M15 A2945 RMK AO1 SLP028
SPECI CYNL 040248Z AUTO 17004KT 2 1/2SM VV014 M12/M15 A2945 RMK AO1 SLP028
SPECI CYNL 040237Z AUTO ///// 3SM FEW003 BKN012 OVC015 M12/M15 A2945 RMK AO1 SLP026
SPECI CYNL 040233Z AUTO ///// 2 1/2SM FEW003 BKN013 OVC016 M12/M15 A2945 RMK AO1 SLP026
SPECI CYNL 040228Z AUTO ///// 2SM VV014 M12/M15 A2944 RMK AO1 SLP026
SPECI CYNL 040226Z AUTO ///// 1 3/4SM VV013 M12/M15 A2944 RMK AO1 SLP025
SPECI CYNL 040225Z AUTO ///// 2SM VV012 M12/M15 A2944 RMK AO1 SLP025
SPECI CYNL 040224Z AUTO ///// 1 3/4SM VV012 M12/M15 A2944 RMK AO1 SLP026
SPECI CYNL 040220Z AUTO ///// 2SM VV012 M12/M15 A2944 RMK AO1 SLP026
SPECI CYNL 040219Z AUTO ///// 1 3/4SM VV012 M12/M15 A2945 RMK AO1 SLP026
SPECI CYNL 040212Z AUTO 16004KT 2 1/2SM VV014 M12/M15 A2945 RMK AO1 SLP027
SPECI CYNL 040207Z AUTO 16004KT 3SM VV015 M12/M15 A2945 RMK AO1 SLP027
SPECI CYNL 040206Z AUTO ///// 3SM VV014 M12/M15 A2945 RMK AO1 SLP027
SPECI CYNL 040204Z AUTO 15005KT 2SM VV014 M12/M15 A2945 RMK AO1 SLP027
SPECI CYNL 040201Z AUTO 16005KT 1 3/4SM FEW013 OVC028 M12/M15 A2944 RMK AO1 SLP026
METAR CYNL 040200Z AUTO 15005KT 3SM FEW013 OVC028 M12/M15 A2944 RMK AO1 SLP026
SPECI CYNL 040145Z AUTO 15004KT 6SM FEW012 OVC029 M12/M15 A2945 RMK AO1 SLP027
SPECI CYNL 040134Z AUTO 16004KT 9SM SCT013 BKN032 OVC046 M13/M15 A2945 RMK AO1 SLP029
SPECI CYNL 040132Z AUTO ///// 9SM SCT013 BKN016 BKN032 M13/M15 A2945 RMK AO1 SLP029
SPECI CYNL 040120Z AUTO 16005KT 3SM VV012 M13/M15 A2945 RMK AO1 SLP030
SPECI CYNL 040113Z AUTO 17005KT 2SM VV013 M13/M15 A2946 RMK AO1 SLP031
SPECI CYNL 040104Z AUTO 16006KT 1 1/2SM VV011 M13/M15 A2946 RMK AO1 SLP030
SPECI CYNL 040102Z AUTO 16006KT 1 1/4SM VV011 M13/M15 A2946 RMK AO1 SLP030
SPECI CYNL 040101Z AUTO 16006KT 1 1/2SM VV010 M13/M15 A2945 RMK AO1 SLP030
METAR CYNL 040100Z AUTO 16005KT 2SM VV010 M13/M15 A2945 RMK AO1 SLP030
SPECI CYNL 040052Z AUTO 15005KT 2SM VV010 M13/M15 A2946 RMK AO1 SLP030
SPECI CYNL 040050Z AUTO 16005KT 1 1/2SM VV009 M13/M15 A2946 RMK AO1 SLP031
SPECI CYNL 040044Z AUTO 16005KT 1SM VV009 M13/M15 A2946 RMK AO1 SLP031
SPECI CYNL 040041Z AUTO 15005KT 1 1/4SM VV012 M13/M15 A2946 RMK AO1 SLP031
SPECI CYNL 040036Z AUTO 15005KT 1 1/2SM VV013 M13/M15 A2945 RMK AO1 SLP030
SPECI CYNL 040030Z AUTO 16006KT 1SM VV010 M13/M15 A2945 RMK AO1 SLP030
SPECI CYNL 040026Z AUTO 15006KT 3/4SM VV010 M13/M15 A2945 RMK AO1 SLP029
SPECI CYNL 040025Z AUTO 15005KT 5/8SM VV010 M13/M15 A2945 RMK AO1 SLP029
SPECI CYNL 040023Z AUTO 14005KT 3/4SM VV011 M13/M15 A2945 RMK AO1 SLP029
SPECI CYNL 040022Z AUTO 14006KT 1SM VV011 M13/M15 A2945 RMK AO1 SLP029
SPECI CYNL 040017Z AUTO ///// 3/4SM VV010 M13/M15 A2945 RMK AO1 SLP028
SPECI CYNL 040015Z AUTO 14006KT 1SM VV010 M13/M15 A2945 RMK AO1 SLP028
SPECI CYNL 040014Z AUTO 14006KT 3/4SM VV010 M13/M15 A2945 RMK AO1 SLP028
SPECI CYNL 040011Z AUTO 14005KT 1 1/4SM VV011 M13/M15 A2945 RMK AO1 SLP029
SPECI CYNL 040008Z AUTO 13005KT 1 3/4SM VV012 M13/M15 A2945 RMK AO1 SLP029
SPECI CYNL 040005Z AUTO 14006KT 2SM VV012 M13/M15 A2945 RMK AO1 SLP029
SPECI CYNL 040003Z AUTO 14006KT 1 1/2SM VV012 M13/M15 A2945 RMK AO1 SLP029
SPECI CYNL 040002Z AUTO 14006KT 1 1/4SM VV012 M13/M15 A2945 RMK AO1 SLP029
METAR CYNL 040000Z AUTO 14006KT 2 1/2SM VV014 M13/M15 A2945 RMK AO1 SLP029
SPECI CYNL 032357Z AUTO 14005KT 3SM VV017 M13/M15 A2945 RMK AO1 SLP029
SPECI CYNL 032353Z AUTO 14007KT 2SM VV020 M13/M15 A2945 RMK AO1 SLP029
SPECI CYNL 032350Z AUTO 13005KT 4SM VV024 M13/M15 A2945 RMK AO1 SLP029
SPECI CYNL 032346Z AUTO 14005KT 5SM VV029 M13/M15 A2945 RMK AO1 SLP030
SPECI CYNL 032339Z AUTO 13005KT 3SM VV031 M13/M15 A2946 RMK AO1 SLP030
SPECI CYNL 032336Z AUTO 13005KT 2SM VV025 M13/M15 A2945 RMK AO1 SLP030
SPECI CYNL 032334Z AUTO 13005KT 1 1/2SM VV019 M13/M15 A2945 RMK AO1 SLP030
SPECI CYNL 032330Z AUTO 13005KT 1 1/4SM VV016 M13/M15 A2946 RMK AO1 SLP031
SPECI CYNL 032329Z AUTO 13006KT 1 1/2SM VV016 M13/M15 A2946 RMK AO1 SLP031
SPECI CYNL 032327Z AUTO 13005KT 2 1/2SM VV019 M13/M15 A2946 RMK AO1 SLP031
SPECI CYNL 032324Z AUTO 13005KT 6SM VV023 M13/M15 A2946 RMK AO1 SLP031
SPECI CYNL 032322Z AUTO 13006KT 5SM VV028 M13/M15 A2946 RMK AO1 SLP031
SPECI CYNL 032321Z AUTO 13006KT 4SM VV031 M13/M15 A2946 RMK AO1 SLP032
SPECI CYNL 032318Z AUTO 14006KT 6SM VV029 M13/M15 A2946 RMK AO1 SLP032
SPECI CYNL 032317Z AUTO 14006KT 6SM VV033 M13/M15 A2946 RMK AO1 SLP032
SPECI CYNL 032315Z AUTO 14006KT 8SM SCT006 BKN024 OVC052 M13/M15 A2946 RMK AO1 SLP032
SPECI CYNL 032312Z AUTO 13005KT 9SM SCT007 BKN012 OVC052 M13/M15 A2946 RMK AO1 SLP032
SPECI CYNL 032310Z AUTO 13006KT 9SM VV010 M13/M15 A2946 RMK AO1 SLP032
SPECI CYNL 032306Z AUTO 13006KT 7SM VV009 M13/M15 A2946 RMK AO1 SLP031
SPECI CYNL 032301Z AUTO 13005KT 6SM VV014 M13/M15 A2946 RMK AO1 SLP031
METAR CYNL 032300Z AUTO 13006KT 5SM VV016 M13/M15 A2946 RMK AO1 SLP031
SPECI CYNL 032257Z AUTO 13006KT 3SM VV020 M13/M15 A2946 RMK AO1 SLP031
SPECI CYNL 032254Z AUTO 12007KT 2 1/2SM VV021 M13/M15 A2946 RMK AO1 SLP031
SPECI CYNL 032252Z AUTO 13007KT 5SM VV017 M13/M15 A2945 RMK AO1 SLP030
SPECI CYNL 032250Z AUTO 12006KT 6SM VV011 M12/M15 A2945 RMK AO1 SLP030
SPECI CYNL 032245Z AUTO 13007KT 3SM VV009 M12/M15 A2946 RMK AO1 SLP030
SPECI CYNL 032235Z AUTO 11006KT 3SM VV012 M12/M15 A2945 RMK AO1 SLP029
SPECI CYNL 032232Z AUTO 11007KT 2 1/2SM VV014 M12/M15 A2945 RMK AO1 SLP028
SPECI CYNL 032231Z AUTO 11006KT 2 1/2SM VV015 M12/M15 A2945 RMK AO1 SLP028
SPECI CYNL 032230Z AUTO 11006KT 3SM VV015 M12/M15 A2945 RMK AO1 SLP027
SPECI CYNL 032228Z AUTO 12006KT 3SM VV013 M12/M15 A2945 RMK AO1 SLP027
SPECI CYNL 032227Z AUTO 11006KT 2 1/2SM VV012 M12/M15 A2945 RMK AO1 SLP027
SPECI CYNL 032225Z AUTO 11006KT 1 1/2SM VV010 M12/M15 A2945 RMK AO1 SLP027
SPECI CYNL 032218Z AUTO 11006KT 1 1/4SM VV009 M12/M15 A2945 RMK AO1 SLP028
SPECI CYNL 032211Z AUTO 13006KT 1 1/2SM VV008 M12/M15 A2945 RMK AO1 SLP028
SPECI CYNL 032210Z AUTO 12006KT 1 1/4SM VV009 M12/M15 A2945 RMK AO1 SLP028
SPECI CYNL 032209Z AUTO 13006KT 1 1/4SM VV011 M12/M15 A2945 RMK AO1 SLP028
SPECI CYNL 032208Z AUTO 13005KT 1 1/2SM VV013 M12/M15 A2945 RMK AO1 SLP028
SPECI CYNL 032207Z AUTO 13005KT 2SM VV014 M12/M15 A2945 RMK AO1 SLP028
SPECI CYNL 032202Z AUTO 13006KT 9SM VV010 M12/M15 A2945 RMK AO1 SLP028
METAR CYNL 032200Z AUTO 12006KT 9SM VV006 M12/M15 A2945 RMK AO1 SLP028
SPECI CYNL 032139Z AUTO 12006KT 9SM VV005 M12/M15 A2945 RMK AO1 SLP027
SPECI CYNL 032137Z AUTO 13006KT 9SM VV004 M12/M15 A2945 RMK AO1 SLP027
SPECI CYNL 032134Z AUTO 11006KT 9SM VV005 M12/M15 A2945 RMK AO1 SLP026
SPECI CYNL 032133Z AUTO 12006KT 9SM VV004 M12/M15 A2945 RMK AO1 SLP026
SPECI CYNL 032130Z AUTO 12006KT 3SM VV006 M12/M15 A2944 RMK AO1 SLP026
SPECI CYNL 032128Z AUTO 12007KT 2 1/2SM VV008 M12/M15 A2944 RMK AO1 SLP026
SPECI CYNL 032121Z AUTO 12005KT 9SM VV010 M12/M15 A2944 RMK AO1 SLP026
METAR CYNL 032100Z AUTO 11007KT 4SM VV006 M12/M15 A2944 RMK AO1 SLP024
SPECI CYNL 032017Z AUTO 12006KT 3SM VV008 M12/M15 A2943 RMK AO1 SLP023
SPECI CYNL 032015Z AUTO 11006KT 2 1/2SM VV008 M12/M15 A2943 RMK AO1 SLP022
SPECI CYNL 032011Z AUTO 11007KT 5SM VV009 M12/M15 A2943 RMK AO1 SLP022
SPECI CYNL 032010Z AUTO ///// 7SM VV010 M12/M15 A2943 RMK AO1 SLP023
METAR CYNL 032000Z AUTO 12006KT 9SM VV006 M12/M15 A2943 RMK AO1 SLP023
SPECI CYNL 031935Z AUTO 11008KT 7SM SCT006 BKN008 M12/M15 A2943 RMK AO1 SLP021
SPECI CYNL 031931Z AUTO 12007KT 9SM FEW004 SCT006 M12/M15 A2943 RMK AO1 SLP021
METAR CYNL 031900Z AUTO 13006KT 9SM VV005 M12/M15 A2943 RMK AO1 SLP021
SPECI CYNL 031811Z AUTO 12007KT 9SM VV009 M12/M14 A2943 RMK AO1 SLP021
METAR CYNL 031800Z AUTO 11007KT 6SM FEW011 OVC014 M12/M15 A2943 RMK AO1 SLP020
SPECI CYNL 031749Z AUTO ///// 5SM FEW004 OVC014 M12/M15 A2943 RMK AO1 SLP020
SPECI CYNL 031740Z AUTO ///// 3SM OVC015 M12/M15 A2943 RMK AO1 SLP020
SPECI CYNL 031733Z AUTO ///// 2 1/2SM FEW010 OVC015 M12/M15 A2943 RMK AO1 SLP020
SPECI CYNL 031723Z AUTO 11007KT 3SM FEW009 OVC015 M12/M15 A2943 RMK AO1 SLP020
SPECI CYNL 031720Z AUTO 11006KT 2SM FEW009 OVC015 M12/M15 A2943 RMK AO1 SLP020
SPECI CYNL 031719Z AUTO 12007KT 1 3/4SM FEW009 OVC015 M12/M15 A2943 RMK AO1 SLP020
SPECI CYNL 031717Z AUTO 13006KT 1 1/4SM FEW009 OVC015 M12/M15 A2943 RMK AO1 SLP020
SPECI CYNL 031716Z AUTO 12006KT 1 1/2SM VV013 M12/M15 A2943 RMK AO1 SLP020
SPECI CYNL 031711Z AUTO 12006KT 1 1/4SM VV014 M12/M15 A2943 RMK AO1 SLP020
SPECI CYNL 031710Z AUTO 12006KT 1 1/2SM VV014 M12/M15 A2943 RMK AO1 SLP020
SPECI CYNL 031709Z AUTO 11006KT 1 3/4SM VV015 M12/M15 A2943 RMK AO1 SLP020
SPECI CYNL 031705Z AUTO ///// 2SM VV015 M12/M15 A2943 RMK AO1 SLP021
METAR CYNL 031700Z AUTO 12006KT 2SM VV013 M12/M15 A2943 RMK AO1 SLP020
SPECI CYNL 031657Z AUTO 12005KT 2SM VV013 M12/M15 A2943 RMK AO1 SLP021
SPECI CYNL 031653Z AUTO 11006KT 2 1/2SM BKN007 OVC016 M12/M15 A2943 RMK AO1 SLP020
METAR CYNL 031600Z AUTO 12005KT 9SM OVC008 M13/M15 A2942 RMK AO1 SLP019
METAR CYNL 031500Z AUTO 09004KT 9SM OVC008 M13/M15 A2942 RMK AO1 SLP017
METAR CYNL 031400Z AUTO 08005KT 9SM OVC008 M13/M15 A2941 RMK AO1 SLP016
METAR CYNL 031300Z AUTO 09005KT 9SM OVC007 M13/M15 A2941 RMK AO1 SLP016
SPECI CYNL 031230Z AUTO 09003KT 9SM BKN007 OVC017 M13/M15 A2941 RMK AO1 SLP015
METAR CYNL 031200Z AUTO 09003KT 9SM FEW007 OVC017 M13/M15 A2941 RMK AO1 SLP015
SPECI CYNL 031128Z AUTO 08004KT 9SM FEW007 OVC018 M13/M16 A2941 RMK AO1 SLP014
METAR CYNL 031100Z AUTO 08004KT 9SM OVC016 M13/M16 A2941 RMK AO1 SLP014
METAR CYNL 031000Z AUTO 07004KT 9SM OVC015 M13/M16 A2941 RMK AO1 SLP014
SPECI CYNL 030927Z AUTO 08003KT 9SM OVC015 M13/M16 A2941 RMK AO1 SLP012
METAR CYNL 030900Z AUTO 08003KT 9SM OVC014 M13/M16 A2940 RMK AO1 SLP011
METAR CYNL 030800Z AUTO 00000KT 9SM OVC010 M13/M16 A2941 RMK AO1 SLP011
SPECI CYNL 030757Z AUTO 00000KT 9SM OVC010 M13/M15 A2941 RMK AO1 SLP011
METAR CYNL 030700Z AUTO 00000KT 9SM OVC009 M13/M16 A2942 RMK AO1 SLP017
SPECI CYNL 030657Z AUTO 00000KT 9SM OVC009 M13/M16 A2942 RMK AO1 SLP016
METAR CYNL 030600Z AUTO 00000KT 9SM OVC010 M13/M16 A2943 RMK AO1 SLP019
METAR CYNL 030500Z AUTO 00000KT 7SM OVC010 M13/M16 A2943 RMK AO1 SLP019
SPECI CYNL 030439Z AUTO 25002KT 9SM OVC010 M13/M16 A2943 RMK AO1 SLP019
METAR CYNL 030400Z AUTO 27003KT 8SM OVC009 M13/M16 A2943 RMK AO1 SLP019
SPECI CYNL 030340Z AUTO 27003KT 6SM OVC009 M13/M16 A2943 RMK AO1 SLP018
METAR CYNL 030300Z AUTO 26002KT 9SM OVC010 M13/M16 A2943 RMK AO1 SLP019
SPECI CYNL 030220Z AUTO 00000KT 9SM SCT012 BKN014 OVC024 M13/M16 A2943 RMK AO1 SLP018
METAR CYNL 030200Z AUTO 31003KT 9SM BKN020 OVC024 M13/M16 A2943 RMK AO1 SLP018
METAR CYNL 030100Z AUTO 29004KT 9SM OVC018 M13/M15 A2944 RMK AO1 SLP023
METAR CYNL 030000Z AUTO 29006KT 9SM SCT016 OVC020 M13/M15 A2945 RMK AO1 SLP024
METAR CYNL 022300Z AUTO 28006KT 9SM BKN015 OVC022 M13/M15 A2944 RMK AO1 SLP022
METAR CYNL 022200Z AUTO 28005KT 9SM BKN015 OVC021 M12/M14 A2944 RMK AO1 SLP019
SPECI CYNL 022116Z AUTO 28005KT 5SM OVC015 M11/M13 A2942 RMK AO1 SLP013
METAR CYNL 022100Z AUTO 28005KT 5SM OVC013 M11/M13 A2942 RMK AO1 SLP013
SPECI CYNL 022051Z AUTO 30006KT 6SM FEW004 OVC012 M11/M13 A2942 RMK AO1 SLP012
SPECI CYNL 022007Z AUTO 31003KT 5SM BKN010 OVC012 M10/M12 A2941 RMK AO1 SLP009
METAR CYNL 022000Z AUTO 31004KT 6SM BKN009 OVC012 M10/M12 A2942 RMK AO1 SLP010
SPECI CYNL 021957Z AUTO 30005KT 5SM BKN009 OVC012 M10/M12 A2942 RMK AO1 PRESFR SLP010
SPECI CYNL 021951Z AUTO 30005KT 9SM SCT009 OVC012 M10/M12 A2941 RMK AO1 PRESFR SLP009
SPECI CYNL 021950Z AUTO 30004KT 9SM BKN009 OVC012 M10/M12 A2941 RMK AO1 PRESFR SLP009
SPECI CYNL 021949Z AUTO 31005KT 8SM SCT009 BKN010 OVC012 M10/M12 A2941 RMK AO1 PRESFR SLP009
SPECI CYNL 021933Z AUTO 00000KT 6SM BKN009 OVC011 M10/M12 A2941 RMK AO1 PRESFR SLP009
SPECI CYNL 021928Z AUTO 34002KT 5SM FEW003 BKN010 OVC012 M10/M12 A2941 RMK AO1 PRESFR SLP008
SPECI CYNL 021925Z AUTO 00000KT 4SM FEW003 BKN009 OVC011 M10/M12 A2941 RMK AO1 PRESFR SLP008
SPECI CYNL 021917Z AUTO 03002KT 5SM SCT009 OVC011 M10/M12 A2941 RMK AO1 PRESFR SLP007
SPECI CYNL 021905Z AUTO 34002KT 3SM BKN008 OVC011 M10/M12 A2941 RMK AO1 PRESFR SLP008
SPECI CYNL 021902Z AUTO 00002KT 2 1/2SM BKN008 OVC011 M10/M12 A2941 RMK AO1 PRESFR SLP008
METAR CYNL 021900Z AUTO 01003KT 3SM BKN008 OVC011 M10/M12 A2941 RMK AO1 PRESFR SLP007
METAR CYNL 021800Z AUTO 02003KT 6SM OVC007 M10/M12 A2943 RMK AO1 SLP015
SPECI CYNL 021730Z AUTO 00000KT 3SM FEW003 OVC006 M10/M12 A2942 RMK AO1 SLP013
SPECI CYNL 021729Z AUTO 00000KT 2 1/2SM FEW003 OVC006 M10/M12 A2942 RMK AO1 SLP013
METAR CYNL 021700Z AUTO 00000KT 6SM OVC005 M10/M12 A2943 RMK AO1 SLP015
METAR CYNL 021600Z AUTO 00000KT 7SM OVC005 M10/M12 A2943 RMK AO1 SLP016
METAR CYNL 021500Z AUTO 00000KT 8SM OVC005 M10/M12 A2943 RMK AO1 PRESFR SLP016
METAR CYNL 021400Z AUTO 00000KT 9SM OVC005 M10/M12 A2946 RMK AO1 SLP024
METAR CYNL 021300Z AUTO 12003KT 9SM OVC006 M10/M12 A2946 RMK AO1 SLP025
METAR CYNL 021200Z AUTO 14003KT 9SM OVC006 M10/M12 A2947 RMK AO1 PRESFR SLP031
METAR CYNL 021100Z AUTO 16003KT 9SM OVC006 M10/M12 A2950 RMK AO1 SLP039
METAR CYNL 021000Z AUTO 13003KT 9SM OVC007 M10/M12 A2951 RMK AO1 PRESFR SLP044
METAR CYNL 020900Z AUTO 17003KT 9SM OVC007 M10/M12 A2953 RMK AO1 SLP052
METAR CYNL 020800Z AUTO 17004KT 9SM OVC007 M10/M12 A2955 RMK AO1 SLP056
METAR CYNL 020700Z AUTO 18004KT 9SM OVC007 M10/M12 A2957 RMK AO1 SLP062
METAR CYNL 020600Z AUTO ///// 9SM OVC006 M10/M12 A2958 RMK AO1 PRESFR SLP066
METAR CYNL 020500Z AUTO 22003KT 9SM OVC007 M10/M12 A2961 RMK AO1 SLP077
METAR CYNL 020400Z AUTO 20007KT 9SM OVC006 M10/M12 A2961 RMK AO1 SLP080
METAR CYNL 020300Z AUTO 19006KT 9SM OVC007 M11/M12 A2963 RMK AO1 PRESFR SLP086
METAR CYNL 020200Z AUTO ///// 9SM OVC007 M11/M13 A2964 RMK AO1 SLP093
METAR CYNL 020100Z AUTO 19004KT 9SM OVC008 M11/M13 A2966 RMK AO1 SLP100
METAR CYNL 020000Z AUTO 20006KT 9SM OVC008 M11/M14 A2968 RMK AO1 SLP107
METAR CYNL 012300Z AUTO 21004KT 9SM OVC008 M12/M14 A2969 RMK AO1 SLP110
SPECI CYNL 012230Z AUTO 21004KT 9SM BKN009 BKN200 M12/M14 A2970 RMK AO1 SLP112
METAR CYNL 012200Z AUTO 20005KT 9SM SCT200 M12/M14 A2970 RMK AO1 SLP114
METAR CYNL 012100Z AUTO 20006KT 9SM CLR M11/M13 A2971 RMK AO1 SLP114
METAR CYNL 012000Z AUTO 22007KT 9SM FEW012 M10/M13 A2972 RMK AO1 SLP118
METAR CYNL 011900Z AUTO 23008KT 9SM FEW210 M10/M13 A2973 RMK AO1 SLP121
METAR CYNL 011800Z AUTO 22009KT 9SM CLR M11/M13 A2973 RMK AO1 PRESFR SLP122
METAR CYNL 011700Z AUTO 22006KT 9SM CLR M12/M14 A2976 RMK AO1 SLP131
METAR CYNL 011600Z AUTO 21006KT 9SM CLR M13/M15 A2977 RMK AO1 SLP137
METAR CYNL 011500Z AUTO 21006KT 9SM CLR M13/M16 A2978 RMK AO1 SLP141
METAR CYNL 011400Z AUTO 21005KT 9SM CLR M13/M16 A2979 RMK AO1 PRESFR SLP146
METAR CYNL 011300Z AUTO 20006KT 9SM CLR M14/M16 A2982 RMK AO1 SLP154
METAR CYNL 011200Z AUTO 18003KT 9SM CLR M14/M16 A2983 RMK AO1 SLP160
METAR CYNL 011100Z AUTO 20005KT 9SM CLR M13/M15 A2984 RMK AO1 PRESFR SLP161
METAR CYNL 011000Z AUTO 20006KT 9SM CLR M12/M14 A2987 RMK AO1 PRESFR SLP169
SPECI CYNL 010926Z AUTO 20006KT 9SM SCT011 M12/M14 A2988 RMK AO1 PRESFR SLP173
METAR CYNL 010900Z AUTO 21006KT 9SM OVC010 M11/M13 A2990 RMK AO1 PRESFR SLP178
SPECI CYNL 010807Z AUTO ///// 9SM OVC010 M11/M13 A2991 RMK AO1 SLP184
METAR CYNL 010800Z AUTO ///// 9SM OVC009 M11/M13 A2992 RMK AO1 SLP185
METAR CYNL 010700Z AUTO ///// 9SM OVC009 M11/M13 A2994 RMK AO1 SLP192
METAR CYNL 010600Z AUTO ///// 9SM OVC008 M12/M14 A2995 RMK AO1 SLP200
METAR CYNL 010500Z AUTO ///// 9SM OVC008 M12/M14 A2997 RMK AO1 PRESFR SLP209
METAR CYNL 010400Z AUTO 20006KT 9SM OVC007 M12/M14 A2999 RMK AO1 PRESFR SLP219
METAR CYNL 010300Z AUTO ///// 9SM OVC008 M12/M14 A3002 RMK AO1 PRESFR SLP232
METAR CYNL 010200Z AUTO 20008KT 9SM OVC008 M11/M13 A3005 RMK AO1 PRESFR SLP241
METAR CYNL 010100Z AUTO 22008KT 9SM OVC008 M11/M13 A3007 RMK AO1 SLP249
METAR CYNL 010000Z AUTO ///// 9SM OVC008 M11/M13 A3009 RMK AO1 SLP253
METAR CYNL 302300Z AUTO 21005KT 9SM OVC008 M11/M13 A3010 RMK AO1 SLP258
METAR CYNL 302200Z AUTO ///// 9SM OVC007 M11/M13 A3010 RMK AO1 SLP258
METAR CYNL 302100Z AUTO 22005KT 9SM OVC007 M11/M13 A3011 RMK AO1 SLP259
METAR CYNL 302000Z AUTO 22006KT 9SM OVC005 M11/M13 A3013 RMK AO1 SLP264
SPECI CYNL 301933Z AUTO 24003KT 9SM OVC005 M12/M14 A3013 RMK AO1 PRESFR SLP267
METAR CYNL 301900Z AUTO 21003KT 9SM OVC003 M12/M15 A3014 RMK AO1 PRESFR SLP271
SPECI CYNL 301831Z AUTO 19003KT 7SM OVC003 M13/M16 A3015 RMK AO1 SLP275
SPECI CYNL 301829Z AUTO ///// 3SM OVC002 M13/M16 A3015 RMK AO1 SLP276
SPECI CYNL 301823Z AUTO 17003KT 2 1/2SM OVC002 M14/M16 A3016 RMK AO1 SLP276
SPECI CYNL 301812Z AUTO 00000KT 5SM OVC002 M14/M17 A3016 RMK AO1 SLP280
SPECI CYNL 301811Z AUTO 00000KT 2 1/2SM OVC002 M14/M17 A3016 RMK AO1 SLP280
SPECI CYNL 301809Z AUTO 00000KT 1 3/4SM OVC002 M14/M17 A3017 RMK AO1 SLP281
SPECI CYNL 301803Z AUTO 00000KT 1SM OVC002 M15/M17 A3017 RMK AO1 SLP283
SPECI CYNL 301802Z AUTO 00000KT 3/4SM OVC002 M15/M17 A3017 RMK AO1 SLP283
SPECI CYNL 301801Z AUTO 00000KT 5/8SM BKN002 OVC003 M15/M17 A3017 RMK AO1 SLP283
METAR CYNL 301800Z AUTO 00000KT 3/4SM BKN002 OVC003 M15/M18 A3017 RMK AO1 SLP284
SPECI CYNL 301759Z AUTO 00000KT 3/4SM BKN002 OVC003 M15/M18 A3017 RMK AO1 SLP283
SPECI CYNL 301755Z AUTO 00000KT 1SM OVC002 M15/M18 A3017 RMK AO1 SLP284
SPECI CYNL 301754Z AUTO 00000KT 1 1/2SM OVC002 M15/M18 A3017 RMK AO1 SLP284
SPECI CYNL 301753Z AUTO 00000KT 1SM OVC002 M15/M18 A3017 RMK AO1 SLP284
SPECI CYNL 301742Z AUTO 00000KT 1/2SM OVC002 M16/M18 A3018 RMK AO1 SLP285
SPECI CYNL 301731Z AUTO 00000KT 1/4SM VV003 M16/M19 A3017 RMK AO1 SLP286
SPECI CYNL 301724Z AUTO 25002KT 1/8SM VV003 M16/M19 A3017 RMK AO1 SLP286
SPECI CYNL 301722Z AUTO 24002KT 1/4SM VV003 M16/M19 A3017 RMK AO1 SLP286
SPECI CYNL 301719Z AUTO 23003KT 1/8SM VV003 M16/M19 A3017 RMK AO1 SLP286
SPECI CYNL 301714Z AUTO 23003KT 1/4SM VV003 M17/M19 A3018 RMK AO1 SLP286
SPECI CYNL 301702Z AUTO 23003KT 1/8SM VV003 M17/M19 A3018 RMK AO1 SLP287
METAR CYNL 301700Z AUTO 23004KT 1/4SM VV003 M17/M19 A3018 RMK AO1 SLP287
SPECI CYNL 301658Z AUTO 23003KT 1/4SM OVC002 M17/M19 A3018 RMK AO1 SLP287
SPECI CYNL 301647Z AUTO 22003KT 1/4SM VV003 M17/M20 A3018 RMK AO1 SLP288
SPECI CYNL 301646Z AUTO 21003KT 1/4SM VV002 M17/M20 A3018 RMK AO1 SLP289
METAR CYNL 301600Z AUTO 25003KT 0SM VV002 M19/M22 A3019 RMK AO1 SLP296
SPECI CYNL 301521Z AUTO 23003KT 1/8SM OVC002 M19/M22 A3019 RMK AO1 SLP296
SPECI CYNL 301517Z AUTO 22004KT 5/8SM OVC002 M20/M23 A3019 RMK AO1 SLP296
SPECI CYNL 301516Z AUTO 22004KT 1SM BKN002 M20/M23 A3019 RMK AO1 SLP296
SPECI CYNL 301502Z AUTO 23005KT 9SM BKN003 M20/M23 A3020 RMK AO1 SLP298
METAR CYNL 301500Z AUTO 23005KT 9SM SCT003 M20/M23 A3020 RMK AO1 SLP298
SPECI CYNL 301459Z AUTO 23005KT 9SM SCT003 M20/M23 A3020 RMK AO1 SLP299
SPECI CYNL 301455Z AUTO 23005KT 9SM VV003 M20/M23 A3020 RMK AO1 SLP299
SPECI CYNL 301451Z AUTO 23005KT 9SM FEW003 M20/M23 A3020 RMK AO1 SLP299
METAR CYNL 301400Z AUTO 00000KT 9SM CLR M20/M23 A3020 RMK AO1 SLP300
METAR CYNL 301300Z AUTO 25003KT 9SM CLR M19/M21 A3020 RMK AO1 SLP296
METAR CYNL 301200Z AUTO 25003KT 9SM CLR M19/M22 A3019 RMK AO1 SLP291
METAR CYNL 301100Z AUTO 24003KT 9SM CLR M18/M21 A3018 RMK AO1 SLP290
METAR CYNL 301000Z AUTO 21004KT 9SM CLR M17/M20 A3020 RMK AO1 SLP293
METAR CYNL 300900Z AUTO 22005KT 9SM CLR M17/M19 A3021 RMK AO1 SLP291
METAR CYNL 300800Z AUTO 22003KT 9SM CLR M17/M19 A3022 RMK AO1 SLP295
METAR CYNL 300700Z AUTO 26002KT 9SM CLR M16/M19 A3022 RMK AO1 SLP292
METAR CYNL 300600Z AUTO 23004KT 9SM CLR M16/M19 A3021 RMK AO1 SLP289
METAR CYNL 300500Z AUTO 26003KT 9SM CLR M16/M19 A3021 RMK AO1 SLP288
METAR CYNL 300400Z AUTO 22005KT 9SM CLR M16/M18 A3020 RMK AO1 SLP288
METAR CYNL 300300Z AUTO 22003KT 9SM CLR M17/M19 A3022 RMK AO1 SLP293
METAR CYNL 300200Z AUTO 22004KT 9SM CLR M16/M18 A3021 RMK AO1 SLP290
METAR CYNL 300100Z AUTO 21003KT 9SM CLR M15/M17 A3020 RMK AO1 SLP286
METAR CYNL 300000Z AUTO 22003KT 9SM CLR M14/M17 A3021 RMK AO1 SLP286
METAR CYNL 292300Z AUTO 20004KT 9SM CLR M13/M15 A3022 RMK AO1 SLP289
METAR CYNL 292200Z AUTO 21003KT 9SM CLR M11/M13 A3021 RMK AO1 PRESRR SLP283
METAR CYNL 292100Z AUTO 20003KT 9SM CLR M09/M12 A3019 RMK AO1 SLP275
METAR CYNL 292000Z AUTO 20007KT 9SM CLR M09/M12 A3020 RMK AO1 SLP277
SPECI CYNL 291931Z AUTO 21005KT 9SM SCT008 M09/M12 A3021 RMK AO1 SLP279
METAR CYNL 291900Z AUTO 19008KT 9SM OVC008 M10/M12 A3022 RMK AO1 SLP283
METAR CYNL 291800Z AUTO 19009KT 9SM OVC007 M09/M12 A3023 RMK AO1 SLP285
METAR CYNL 291700Z AUTO 19010KT 9SM OVC007 M10/M12 A3024 RMK AO1 SLP290
METAR CYNL 291600Z AUTO 20009G15KT 9SM OVC007 M09/M11 A3025 RMK AO1 SLP293
METAR CYNL 291500Z AUTO 20007KT 9SM OVC008 M10/M12 A3025 RMK AO1 SLP296
METAR CYNL 291400Z AUTO 18008KT 8SM OVC008 M10/M11 A3025 RMK AO1 SLP296
METAR CYNL 291300Z AUTO 19009KT 9SM OVC008 M09/M11 A3026 RMK AO1 SLP298
METAR CYNL 291200Z AUTO 20006KT 9SM OVC009 M09/M11 A3026 RMK AO1 SLP298
METAR CYNL 291100Z AUTO 20009KT 9SM OVC008 M09/M10 A3026 RMK AO1 SLP299
METAR CYNL 291000Z AUTO 21006KT 9SM OVC009 M09/M10 A3027 RMK AO1 SLP302
SPECI CYNL 290933Z AUTO 21006KT 9SM OVC009 M09/M10 A3028 RMK AO1 SLP304
SPECI CYNL 290926Z AUTO 22008G15KT 9SM OVC010 M09/M10 A3028 RMK AO1 SLP304
SPECI CYNL 290909Z AUTO 20008KT 9SM OVC009 M08/M10 A3028 RMK AO1 SLP304
METAR CYNL 290900Z AUTO 20009KT 9SM OVC010 M08/M10 A3028 RMK AO1 SLP305
METAR CYNL 290800Z AUTO 21009KT 9SM OVC012 M08/M10 A3029 RMK AO1 SLP309
METAR CYNL 290700Z AUTO 21009KT 9SM OVC014 M08/M09 A3030 RMK AO1 SLP310
SPECI CYNL 290633Z AUTO 20009G16KT 9SM OVC014 M08/M09 A3030 RMK AO1 SLP311
METAR CYNL 290600Z AUTO 20009KT 9SM OVC016 M08/M09 A3031 RMK AO1 SLP314
METAR CYNL 290500Z AUTO 20010KT 9SM OVC020 M08/M09 A3032 RMK AO1 SLP320
METAR CYNL 290400Z AUTO 18008KT 9SM OVC021 M08/M10 A3033 RMK AO1 SLP323
SPECI CYNL 290318Z AUTO 17007KT 8SM FEW009 OVC024 M09/M10 A3034 RMK AO1 SLP329
SPECI CYNL 290311Z AUTO 17008KT 9SM SCT009 OVC025 M09/M10 A3034 RMK AO1 SLP329
SPECI CYNL 290310Z AUTO 17008KT 9SM SCT009 OVC024 M09/M10 A3034 RMK AO1 SLP329
SPECI CYNL 290306Z AUTO 17009KT 5SM SCT009 OVC025 M09/M10 A3034 RMK AO1 SLP329
METAR CYNL 290300Z AUTO 17008KT 8SM BKN009 OVC027 M09/M10 A3034 RMK AO1 SLP329
METAR CYNL 290200Z AUTO 17007KT 9SM OVC008 M09/M10 A3036 RMK AO1 SLP335
METAR CYNL 290100Z AUTO 18007KT 9SM OVC007 M09/M11 A3036 RMK AO1 SLP338
METAR CYNL 290000Z AUTO 16005KT 9SM OVC007 M09/M11 A3037 RMK AO1 SLP343
METAR CYNL 282300Z AUTO 19006KT 9SM OVC007 M09/M11 A3039 RMK AO1 SLP347
METAR CYNL 282200Z AUTO 20006KT 9SM OVC006 M09/M11 A3040 RMK AO1 SLP349
METAR CYNL 282100Z AUTO 19008KT 9SM OVC008 M10/M11 A3040 RMK AO1 PRESFR SLP351
METAR CYNL 282000Z AUTO 20006KT 9SM OVC008 M10/M11 A3042 RMK AO1 PRESFR SLP358
METAR CYNL 281900Z AUTO 21007KT 4SM OVC009 M10/M12 A3044 RMK AO1 SLP367
SPECI CYNL 281827Z AUTO 21006KT 3SM OVC009 M10/M12 A3045 RMK AO1 SLP369
SPECI CYNL 281824Z AUTO 21008G16KT 2 1/2SM OVC009 M10/M12 A3045 RMK AO1 SLP369
SPECI CYNL 281804Z AUTO 20009KT 3SM OVC009 M10/M12 A3045 RMK AO1 SLP369
SPECI CYNL 281801Z AUTO 20008KT 2 1/2SM BKN009 OVC011 M10/M12 A3045 RMK AO1 SLP370
METAR CYNL 281800Z AUTO 20008KT 3SM BKN009 OVC011 M10/M12 A3045 RMK AO1 SLP370
METAR CYNL 281700Z AUTO ///// 9SM OVC006 M11/M13 A3047 RMK AO1 SLP376
METAR CYNL 281600Z AUTO 18006KT 9SM SCT004 BKN007 OVC026 M12/M14 A3047 RMK AO1 SLP380
SPECI CYNL 281549Z AUTO 18005KT 9SM OVC005 M12/M14 A3047 RMK AO1 SLP380
SPECI CYNL 281542Z AUTO 17006KT 9SM OVC004 M12/M14 A3048 RMK AO1 SLP381
METAR CYNL 281500Z AUTO 19004KT 9SM OVC005 M13/M15 A3048 RMK AO1 SLP383
SPECI CYNL 281431Z AUTO 19004KT 9SM BKN006 OVC033 M13/M15 A3048 RMK AO1 SLP384
METAR CYNL 281400Z AUTO 17004KT 9SM SCT005 OVC035 M13/M15 A3048 RMK AO1 SLP383
SPECI CYNL 281357Z AUTO 17004KT 9SM SCT005 OVC035 M13/M15 A3048 RMK AO1 SLP384
SPECI CYNL 281340Z AUTO 17005KT 9SM BKN005 OVC036 M13/M15 A3049 RMK AO1 SLP386
SPECI CYNL 281328Z AUTO 17005KT 9SM FEW005 OVC036 M13/M16 A3049 RMK AO1 SLP388
METAR CYNL 281300Z AUTO 15004KT 9SM OVC038 M14/M16 A3049 RMK AO1 SLP388
METAR CYNL 281200Z AUTO 17003KT 9SM OVC044 M13/M16 A3050 RMK AO1 SLP391
METAR CYNL 281100Z AUTO 14004KT 9SM OVC043 M13/M15 A3050 RMK AO1 SLP391
METAR CYNL 281000Z AUTO 17003KT 9SM OVC043 M13/M15 A3052 RMK AO1 SLP396
METAR CYNL 280900Z AUTO 17002KT 9SM OVC043 M13/M15 A3052 RMK AO1 SLP397
METAR CYNL 280800Z AUTO ///// 9SM OVC042 M13/M15 A3053 RMK AO1 SLP399
METAR CYNL 280700Z AUTO 16003KT 9SM OVC043 M13/M15 A3053 RMK AO1 SLP400
METAR CYNL 280600Z AUTO ///// 9SM OVC045 M13/M15 A3054 RMK AO1 SLP402
METAR CYNL 280500Z AUTO ///// 9SM OVC046 M13/M15 A3054 RMK AO1 SLP402
METAR CYNL 280400Z AUTO 12002KT 9SM OVC046 M13/M15 A3053 RMK AO1 SLP401
METAR CYNL 280300Z AUTO 00000KT 9SM OVC046 M13/M15 A3053 RMK AO1 SLP400
METAR CYNL 280200Z AUTO 00000KT 9SM OVC048 M13/M16 A3053 RMK AO1 SLP399
METAR CYNL 280100Z AUTO 00000KT 9SM OVC046 M13/M16 A3053 RMK AO1 SLP397
METAR CYNL 280000Z AUTO 09003KT 9SM OVC046 M13/M15 A3052 RMK AO1 SLP396
METAR CYNL 272300Z AUTO 07003KT 9SM OVC048 M13/M15 A3051 RMK AO1 SLP389
METAR CYNL 272200Z AUTO 07003KT 9SM OVC047 M12/M14 A3050 RMK AO1 SLP384
METAR CYNL 272100Z AUTO 07002KT 9SM OVC048 M12/M14 A3050 RMK AO1 SLP382
METAR CYNL 272000Z AUTO 07003KT 9SM BKN052 BKN220 M12/M14 A3050 RMK AO1 SLP383
METAR CYNL 271900Z AUTO 06003KT 9SM BKN050 M12/M14 A3050 RMK AO1 SLP383
METAR CYNL 271800Z AUTO 07004KT 9SM BKN050 M12/M14 A3049 RMK AO1 SLP380
METAR CYNL 271700Z AUTO 07004KT 9SM FEW050 M13/M15 A3049 RMK AO1 SLP379
METAR CYNL 271600Z AUTO 07005KT 9SM BKN050 M12/M14 A3047 RMK AO1 SLP375
METAR CYNL 271500Z AUTO 06005KT 9SM BKN048 M12/M14 A3046 RMK AO1 SLP370
SPECI CYNL 271421Z AUTO 07006KT 9SM SCT007 BKN049 M12/M14 A3046 RMK AO1 SLP368
METAR CYNL 271400Z AUTO 05005KT 9SM BKN006 OVC048 M11/M13 A3045 RMK AO1 SLP366
SPECI CYNL 271352Z AUTO 06005KT 9SM BKN006 OVC048 M11/M13 A3045 RMK AO1 SLP365
SPECI CYNL 271335Z AUTO 07006KT 9SM SCT006 OVC048 M11/M13 A3044 RMK AO1 SLP362
SPECI CYNL 271333Z AUTO 06006KT 9SM SCT005 BKN016 OVC048 M11/M13 A3044 RMK AO1 SLP362
SPECI CYNL 271330Z AUTO 07006KT 9SM SCT005 BKN011 OVC048 M11/M13 A3044 RMK AO1 SLP361
SPECI CYNL 271312Z AUTO 07006KT 6SM VV009 M11/M13 A3043 RMK AO1 SLP360
SPECI CYNL 271308Z AUTO 06007KT 4SM VV011 M11/M13 A3043 RMK AO1 SLP359
SPECI CYNL 271305Z AUTO 07007KT 2SM BKN005 OVC049 M11/M13 A3043 RMK AO1 SLP359
METAR CYNL 271300Z AUTO 07005KT 8SM BKN006 OVC048 M11/M13 A3043 RMK AO1 SLP359
SPECI CYNL 271245Z AUTO 07007KT 3SM VV006 M11/M13 A3043 RMK AO1 SLP358
SPECI CYNL 271244Z AUTO 06007KT 2 1/2SM VV006 M11/M13 A3043 RMK AO1 SLP358
SPECI CYNL 271209Z AUTO 06007KT 9SM BKN007 BKN048 M11/M12 A3042 RMK AO1 SLP355
METAR CYNL 271200Z AUTO 06006KT 9SM SCT007 BKN048 M11/M12 A3042 RMK AO1 SLP355
SPECI CYNL 271145Z AUTO 06006KT 9SM FEW005 SCT008 BKN050 M10/M12 A3042 RMK AO1 SLP354
SPECI CYNL 271141Z AUTO 06006KT 9SM SCT007 BKN018 M10/M12 A3042 RMK AO1 SLP353
SPECI CYNL 271138Z AUTO 05007KT 9SM FEW005 SCT007 BKN011 M10/M12 A3042 RMK AO1 SLP353
SPECI CYNL 271132Z AUTO 06006KT 7SM VV009 M10/M12 A3042 RMK AO1 SLP352
SPECI CYNL 271131Z AUTO 06005KT 4SM VV011 M10/M12 A3042 RMK AO1 SLP352
SPECI CYNL 271130Z AUTO 06005KT 1 3/4SM VV012 M10/M12 A3042 RMK AO1 SLP352
SPECI CYNL 271129Z AUTO 06005KT 1 1/4SM VV014 M10/M12 A3042 RMK AO1 SLP352
SPECI CYNL 271127Z AUTO 06006KT 1 1/4SM VV017 M10/M12 A3042 RMK AO1 SLP351
SPECI CYNL 271126Z AUTO 06006KT 1 1/2SM VV017 M10/M12 A3041 RMK AO1 SLP351
SPECI CYNL 271124Z AUTO 05006KT 2SM VV015 M10/M11 A3041 RMK AO1 SLP351
SPECI CYNL 271119Z AUTO 06004KT 2 1/2SM VV012 M10/M11 A3041 RMK AO1 SLP351
SPECI CYNL 271117Z AUTO 06005KT 2 1/2SM FEW005 BKN007 BKN012 M10/M11 A3041 RMK AO1 SLP351
SPECI CYNL 271114Z AUTO 05006KT 1 3/4SM FEW005 BKN007 OVC017 M10/M11 A3041 RMK AO1 SLP351
SPECI CYNL 271112Z AUTO 05006KT 2 1/2SM OVC006 M10/M11 A3041 RMK AO1 SLP350
METAR CYNL 271100Z AUTO 05006KT 9SM BKN005 OVC007 M09/M11 A3041 RMK AO1 SLP349
METAR CYNL 271000Z AUTO 08004KT 9SM OVC006 M09/M11 A3040 RMK AO1 SLP344
METAR CYNL 270900Z AUTO 06004KT 9SM OVC005 M09/M11 A3038 RMK AO1 SLP340
METAR CYNL 270800Z AUTO 08006KT 9SM BKN006 OVC040 M09/M11 A3037 RMK AO1 SLP335
SPECI CYNL 270752Z AUTO 07006KT 9SM SCT006 BKN008 OVC040 M09/M11 A3037 RMK AO1 SLP333
SPECI CYNL 270709Z AUTO 05006KT 9SM SCT008 OVC039 M09/M10 A3036 RMK AO1 SLP330
SPECI CYNL 270708Z AUTO 06006KT 9SM BKN008 OVC039 M09/M10 A3036 RMK AO1 SLP330
SPECI CYNL 270707Z AUTO 06005KT 9SM SCT008 OVC039 M09/M10 A3036 RMK AO1 SLP330
METAR CYNL 270700Z AUTO 07005KT 9SM BKN008 OVC039 M09/M10 A3036 RMK AO1 SLP330
SPECI CYNL 270638Z AUTO 10003KT 9SM BKN008 OVC038 M09/M10 A3035 RMK AO1 SLP328
SPECI CYNL 270620Z AUTO 12004KT 9SM FEW009 OVC038 M09/M10 A3035 RMK AO1 SLP327
METAR CYNL 270600Z AUTO 04008KT 9SM OVC038 M09/M10 A3034 RMK AO1 SLP324
METAR CYNL 270500Z AUTO 04009KT 9SM OVC037 M09/M10 A3033 RMK AO1 SLP320
METAR CYNL 270400Z AUTO 04010KT 9SM OVC035 M09/M11 A3031 RMK AO1 SLP315
METAR CYNL 270300Z AUTO 05008KT 9SM OVC035 M09/M11 A3031 RMK AO1 PRESRR SLP314
METAR CYNL 270200Z AUTO 06005KT 9SM OVC035 M09/M11 A3028 RMK AO1 PRESRR SLP306
METAR CYNL 270100Z AUTO 07006KT 9SM OVC037 M09/M11 A3026 RMK AO1 PRESRR SLP299
METAR CYNL 270000Z AUTO 07006KT 9SM OVC037 M09/M10 A3024 RMK AO1 SLP290
METAR CYNL 262300Z AUTO 06007KT 9SM FEW014 OVC038 M09/M10 A3022 RMK AO1 SLP283
METAR CYNL 262200Z AUTO 07008KT 9SM FEW024 BKN032 M09/M10 A3020 RMK AO1 PRESRR SLP277
METAR CYNL 262100Z AUTO 07008KT 9SM OVC034 M09/M10 A3018 RMK AO1 SLP269
SPECI CYNL 262006Z AUTO 07009KT 9SM SCT012 OVC035 M08/M10 A3017 RMK AO1 PRESRR SLP265
METAR CYNL 262000Z AUTO 07010KT 9SM BKN012 OVC034 M08/M10 A3016 RMK AO1 PRESRR SLP264
SPECI CYNL 261953Z AUTO 06009KT 9SM BKN011 BKN034 M08/M10 A3016 RMK AO1 SLP264
SPECI CYNL 261904Z AUTO 06009KT 9SM SCT011 OVC033 M08/M10 A3014 RMK AO1 SLP257
METAR CYNL 261900Z AUTO 07009KT 9SM BKN010 OVC034 M08/M10 A3014 RMK AO1 SLP257
SPECI CYNL 261841Z AUTO 06007KT 9SM BKN010 OVC036 M08/M10 A3014 RMK AO1 SLP254
METAR CYNL 261800Z AUTO 07008KT 9SM FEW011 OVC037 M09/M10 A3013 RMK AO1 SLP251
METAR CYNL 261700Z AUTO 07008KT 9SM FEW009 BKN039 M09/M11 A3011 RMK AO1 PRESRR SLP244
SPECI CYNL 261643Z AUTO 07008KT 9SM FEW006 SCT009 BKN039 M09/M11 A3010 RMK AO1 PRESRR SLP243
SPECI CYNL 261630Z AUTO 07008KT 7SM SCT006 BKN009 M09/M11 A3010 RMK AO1 PRESRR SLP242
SPECI CYNL 261629Z AUTO 07008KT 6SM SCT006 BKN011 M09/M11 A3010 RMK AO1 PRESRR SLP242
SPECI CYNL 261626Z AUTO 07009KT 7SM SCT006 BKN008 M09/M11 A3010 RMK AO1 PRESRR SLP242
SPECI CYNL 261625Z AUTO 06008KT 7SM SCT006 BKN010 M09/M11 A3010 RMK AO1 PRESRR SLP241
SPECI CYNL 261617Z AUTO 07010KT 6SM VV006 M09/M11 A3009 RMK AO1 PRESRR SLP240
SPECI CYNL 261608Z AUTO 07009KT 6SM FEW007 BKN026 M09/M11 A3009 RMK AO1 PRESRR SLP239
SPECI CYNL 261607Z AUTO 07009KT 7SM VV014 M09/M11 A3009 RMK AO1 PRESRR SLP239
SPECI CYNL 261602Z AUTO 06009KT 6SM VV024 M09/M11 A3009 RMK AO1 PRESRR SLP238
METAR CYNL 261600Z AUTO 06008KT 6SM VV025 M09/M11 A3009 RMK AO1 PRESRR SLP238
SPECI CYNL 261548Z AUTO 06008KT 5SM VV025 M09/M11 A3008 RMK AO1 PRESRR SLP236
METAR CYNL 261500Z AUTO 06008KT 5SM VV021 M09/M11 A3006 RMK AO1 PRESRR SLP229
SPECI CYNL 261458Z AUTO 06008KT 5SM VV024 M09/M11 A3006 RMK AO1 PRESRR SLP229
SPECI CYNL 261450Z AUTO 06008KT 9SM VV025 M09/M11 A3006 RMK AO1 PRESRR SLP228
SPECI CYNL 261448Z AUTO 06007KT 8SM VV023 M09/M11 A3005 RMK AO1 PRESRR SLP228
SPECI CYNL 261445Z AUTO 06007KT 1 3/4SM VV023 M09/M11 A3005 RMK AO1 PRESRR SLP227
SPECI CYNL 261442Z AUTO 07007KT 8SM VV024 M09/M11 A3005 RMK AO1 PRESRR SLP227
SPECI CYNL 261436Z AUTO 06007KT 8SM VV025 M09/M11 A3005 RMK AO1 PRESRR SLP226
SPECI CYNL 261419Z AUTO 06007KT 4SM VV018 M09/M11 A3004 RMK AO1 PRESRR SLP223
METAR CYNL 261400Z AUTO 06007KT 6SM BKN011 BKN013 OVC015 M09/M11 A3004 RMK AO1 PRESRR SLP221
SPECI CYNL 261339Z AUTO 07006KT 9SM FEW011 BKN014 OVC026 M09/M11 A3003 RMK AO1 SLP219
SPECI CYNL 261338Z AUTO 06006KT 7SM FEW011 BKN015 OVC026 M09/M11 A3003 RMK AO1 SLP219
SPECI CYNL 261334Z AUTO 07006KT 9SM FEW008 BKN013 BKN019 M09/M11 A3002 RMK AO1 SLP218
SPECI CYNL 261326Z AUTO 07008KT 8SM VV021 M09/M11 A3002 RMK AO1 SLP217
SPECI CYNL 261317Z AUTO 06010KT 9SM SCT008 OVC012 M09/M11 A3001 RMK AO1 SLP215
METAR CYNL 261300Z AUTO 07009KT 9SM OVC008 M09/M11 A3001 RMK AO1 SLP212
METAR CYNL 261200Z AUTO 07007KT 9SM OVC008 M09/M10 A2999 RMK AO1 SLP206
METAR CYNL 261100Z AUTO 08010KT 9SM OVC007 M09/M10 A2997 RMK AO1 PRESRR SLP201
METAR CYNL 261000Z AUTO 07012KT 9SM OVC008 M09/M10 A2995 RMK AO1 PRESRR SLP195
SPECI CYNL 260933Z AUTO 07010G15KT 9SM BKN009 OVC020 M09/M11 A2994 RMK AO1 SLP190
SPECI CYNL 260929Z AUTO 07009G15KT 9SM SCT009 BKN014 OVC020 M09/M11 A2994 RMK AO1 SLP190
SPECI CYNL 260922Z AUTO 07010KT 7SM FEW009 BKN015 OVC019 M09/M11 A2994 RMK AO1 SLP189
SPECI CYNL 260918Z AUTO 07010KT 3SM VV015 M09/M11 A2993 RMK AO1 SLP188
SPECI CYNL 260913Z AUTO 07008KT 2 1/2SM VV018 M09/M11 A2993 RMK AO1 SLP188
METAR CYNL 260900Z AUTO 07008KT 6SM VV017 M09/M11 A2993 RMK AO1 SLP185
SPECI CYNL 260854Z AUTO 06008KT 4SM VV015 M09/M11 A2992 RMK AO1 SLP183
SPECI CYNL 260844Z AUTO 07009KT 4SM VV014 M09/M11 A2992 RMK AO1 SLP182
SPECI CYNL 260838Z AUTO 07007KT 4SM VV015 M09/M11 A2992 RMK AO1 SLP182
SPECI CYNL 260832Z AUTO 06008KT 3SM FEW009 BKN013 M09/M11 A2992 RMK AO1 SLP182
SPECI CYNL 260830Z AUTO 07008KT 6SM FEW009 SCT013 M09/M11 A2992 RMK AO1 SLP181
SPECI CYNL 260828Z AUTO 06009KT 9SM SCT013 BKN120 M09/M11 A2992 RMK AO1 SLP181
METAR CYNL 260800Z AUTO 07008KT 9SM FEW009 OVC014 M09/M11 A2991 RMK AO1 SLP178
SPECI CYNL 260743Z AUTO 05008KT 9SM SCT009 OVC014 M09/M11 A2990 RMK AO1 PRESRR SLP175
SPECI CYNL 260728Z AUTO 06009KT 9SM BKN009 BKN013 OVC017 M09/M10 A2990 RMK AO1 PRESRR SLP174
SPECI CYNL 260726Z AUTO 06008KT 9SM SCT009 BKN010 BKN012 M09/M10 A2990 RMK AO1 PRESRR SLP174
SPECI CYNL 260720Z AUTO 06009KT 9SM BKN009 BKN017 OVC024 M09/M10 A2990 RMK AO1 PRESRR SLP173
SPECI CYNL 260715Z AUTO 05008KT 9SM SCT009 BKN012 BKN024 M09/M10 A2990 RMK AO1 PRESRR SLP173
SPECI CYNL 260713Z AUTO 06008KT 9SM FEW009 SCT012 BKN017 M09/M10 A2990 RMK AO1 PRESRR SLP173
METAR CYNL 260700Z AUTO 06008KT 9SM VV019 M09/M10 A2989 RMK AO1 PRESRR SLP171
SPECI CYNL 260638Z AUTO 08007KT 3SM VV015 M08/M10 A2988 RMK AO1 SLP168
SPECI CYNL 260637Z AUTO 07006KT 2 1/2SM VV015 M08/M10 A2988 RMK AO1 SLP168
SPECI CYNL 260621Z AUTO 08008KT 5SM VV024 M08/M10 A2988 RMK AO1 SLP166
SPECI CYNL 260616Z AUTO 08008KT 7SM VV025 M08/M10 A2987 RMK AO1 SLP165
SPECI CYNL 260613Z AUTO 08009KT 8SM VV024 M08/M10 A2987 RMK AO1 SLP164
METAR CYNL 260600Z AUTO 08008KT 4SM VV025 M08/M10 A2987 RMK AO1 SLP162
SPECI CYNL 260546Z AUTO 07008KT 3SM VV018 M08/M10 A2986 RMK AO1 PRESRR SLP162
SPECI CYNL 260543Z AUTO 08008KT 2SM VV016 M08/M10 A2986 RMK AO1 PRESRR SLP162
SPECI CYNL 260539Z AUTO 08007KT 2 1/2SM SCT008 BKN011 OVC015 M08/M10 A2986 RMK AO1 PRESRR SLP161
SPECI CYNL 260537Z AUTO 07008KT 8SM SCT008 BKN011 OVC014 M08/M10 A2986 RMK AO1 PRESRR SLP161
METAR CYNL 260500Z AUTO 06009KT 9SM OVC008 M08/M10 A2985 RMK AO1 PRESRR SLP157
SPECI CYNL 260417Z AUTO 07005KT 9SM BKN009 M09/M10 A2983 RMK AO1 SLP153
SPECI CYNL 260416Z AUTO 07006KT 9SM SCT009 BKN011 M09/M10 A2983 RMK AO1 SLP153
SPECI CYNL 260405Z AUTO 07005KT 9SM SCT011 BKN014 M09/M11 A2983 RMK AO1 SLP151
SPECI CYNL 260404Z AUTO 07005KT 9SM SCT011 BKN015 M09/M11 A2983 RMK AO1 SLP151
METAR CYNL 260400Z AUTO 07005KT 9SM SCT011 M09/M11 A2983 RMK AO1 SLP150
SPECI CYNL 260357Z AUTO 06005KT 9SM SCT011 BKN014 M09/M11 A2982 RMK AO1 SLP150
SPECI CYNL 260344Z AUTO 06004KT 8SM SCT012 BKN015 M09/M11 A2982 RMK AO1 SLP149
SPECI CYNL 260338Z AUTO 05005KT 5SM FEW011 OVC014 M09/M11 A2982 RMK AO1 SLP148
SPECI CYNL 260336Z AUTO 05005KT 3SM VV015 M09/M11 A2982 RMK AO1 SLP148
SPECI CYNL 260335Z AUTO 04005KT 2 1/2SM VV015 M09/M11 A2982 RMK AO1 SLP148
SPECI CYNL 260334Z AUTO 04005KT 2SM VV014 M09/M11 A2982 RMK AO1 SLP148
SPECI CYNL 260333Z AUTO 05005KT 1 3/4SM VV015 M09/M11 A2982 RMK AO1 SLP148
SPECI CYNL 260331Z AUTO 04004KT 1 1/2SM VV014 M09/M11 A2982 RMK AO1 SLP148
SPECI CYNL 260323Z AUTO 03005KT 1 3/4SM VV015 M09/M11 A2981 RMK AO1 SLP147
SPECI CYNL 260322Z AUTO 04004KT 2SM VV015 M09/M11 A2981 RMK AO1 SLP146
SPECI CYNL 260310Z AUTO 03004KT 2SM SCT008 BKN010 OVC016 M09/M11 A2981 RMK AO1 SLP146
SPECI CYNL 260309Z AUTO 03005KT 3SM SCT008 BKN011 BKN015 M09/M11 A2981 RMK AO1 SLP146
SPECI CYNL 260301Z AUTO 04005KT 9SM BKN008 OVC018 M10/M11 A2981 RMK AO1 SLP145
METAR CYNL 260300Z AUTO 03005KT 9SM SCT008 BKN010 OVC018 M10/M11 A2981 RMK AO1 SLP145
SPECI CYNL 260235Z AUTO 03006KT 6SM SCT008 OVC010 M10/M12 A2980 RMK AO1 PRESRR SLP142
SPECI CYNL 260206Z AUTO 02004KT 7SM SCT003 BKN008 OVC011 M10/M12 A2980 RMK AO1 PRESRR SLP142
SPECI CYNL 260202Z AUTO 02004KT 4SM BKN003 BKN008 OVC011 M10/M12 A2979 RMK AO1 PRESRR SLP141
METAR CYNL 260200Z AUTO 01004KT 2 1/2SM BKN003 OVC011 M10/M12 A2979 RMK AO1 PRESRR SLP141
SPECI CYNL 260158Z AUTO 01003KT 1 3/4SM BKN003 OVC011 M10/M12 A2979 RMK AO1 PRESRR SLP140
SPECI CYNL 260157Z AUTO 01003KT 2SM OVC003 M10/M12 A2979 RMK AO1 PRESRR SLP140
METAR CYNL 260100Z AUTO 35004KT 7SM OVC004 M11/M13 A2977 RMK AO1 PRESRR SLP133
SPECI CYNL 260031Z AUTO 01002KT 9SM BKN004 OVC006 M11/M13 A2976 RMK AO1 SLP128
METAR CYNL 260000Z AUTO 00003KT 9SM OVC006 M11/M13 A2974 RMK AO1 SLP124
SPECI CYNL 252336Z AUTO 00000KT 9SM BKN007 OVC010 M11/M13 A2974 RMK AO1 SLP121
SPECI CYNL 252324Z AUTO 00002KT 9SM FEW008 BKN010 M12/M14 A2973 RMK AO1 SLP120
METAR CYNL 252300Z AUTO 35004KT 9SM BKN014 M12/M14 A2973 RMK AO1 SLP118
SPECI CYNL 252244Z AUTO 35003KT 9SM BKN014 BKN034 OVC082 M12/M14 A2972 RMK AO1 PRESRR SLP117
SPECI CYNL 252240Z AUTO 34003KT 9SM SCT015 BKN022 BKN034 M12/M14 A2972 RMK AO1 PRESRR SLP116
SPECI CYNL 252206Z AUTO 33003KT 9SM SCT007 BKN037 M11/M13 A2971 RMK AO1 PRESRR SLP111
SPECI CYNL 252204Z AUTO 34004KT 9SM SCT006 BKN026 BKN037 M11/M13 A2971 RMK AO1 PRESRR SLP111
METAR CYNL 252200Z AUTO 35004KT 9SM VV007 M11/M13 A2971 RMK AO1 PRESRR SLP110
SPECI CYNL 252156Z AUTO 35004KT 9SM FEW009 BKN025 OVC036 M11/M13 A2970 RMK AO1 SLP109
SPECI CYNL 252155Z AUTO 35004KT 9SM FEW009 BKN024 OVC036 M11/M13 A2970 RMK AO1 SLP109
SPECI CYNL 252149Z AUTO 34005KT 8SM FEW013 SCT020 BKN026 M11/M13 A2970 RMK AO1 SLP107
SPECI CYNL 252147Z AUTO 34005KT 9SM VV023 M11/M13 A2970 RMK AO1 SLP107
SPECI CYNL 252145Z AUTO 34005KT 9SM VV029 M11/M13 A2970 RMK AO1 SLP107
SPECI CYNL 252139Z AUTO 34005KT 8SM VV032 M11/M13 A2970 RMK AO1 SLP106
SPECI CYNL 252137Z AUTO 34005KT 8SM VV026 M11/M12 A2970 RMK AO1 SLP106
SPECI CYNL 252122Z AUTO 33003KT 8SM VV015 M10/M12 A2969 RMK AO1 SLP105
METAR CYNL 252100Z AUTO 31004KT 7SM VV012 M10/M12 A2968 RMK AO1 SLP100
SPECI CYNL 252054Z AUTO 30005KT 7SM VV014 M10/M12 A2968 RMK AO1 PRESRR SLP098
SPECI CYNL 252041Z AUTO 33002KT 9SM SCT010 BKN024 M10/M12 A2967 RMK AO1 PRESRR SLP096
SPECI CYNL 252029Z AUTO 32002KT 9SM BKN010 M10/M12 A2967 RMK AO1 PRESRR SLP096
SPECI CYNL 252027Z AUTO 33004KT 9SM SCT011 M10/M12 A2967 RMK AO1 PRESRR SLP095
SPECI CYNL 252021Z AUTO 32004KT 9SM FEW009 BKN011 M10/M12 A2967 RMK AO1 PRESRR SLP095
SPECI CYNL 252019Z AUTO 31004KT 9SM FEW009 SCT011 BKN045 M10/M12 A2967 RMK AO1 PRESRR SLP094
SPECI CYNL 252016Z AUTO 32004KT 9SM FEW009 BKN011 M10/M12 A2967 RMK AO1 PRESRR SLP094
SPECI CYNL 252014Z AUTO 31003KT 9SM SCT011 BKN045 M10/M12 A2967 RMK AO1 PRESRR SLP094
METAR CYNL 252000Z AUTO 32005KT 9SM OVC011 M10/M12 A2967 RMK AO1 PRESRR SLP093
SPECI CYNL 251913Z AUTO 30004KT 9SM SCT005 BKN010 M09/M11 A2965 RMK AO1 SLP085
METAR CYNL 251900Z AUTO 30005KT 9SM VV006 M09/M12 A2964 RMK AO1 SLP084
SPECI CYNL 251833Z AUTO 31004KT 9SM VV009 M10/M12 A2964 RMK AO1 SLP083
SPECI CYNL 251832Z AUTO 31004KT 9SM VV010 M10/M12 A2964 RMK AO1 SLP082
SPECI CYNL 251823Z AUTO 30005KT 9SM VV009 M10/M12 A2964 RMK AO1 SLP082
SPECI CYNL 251802Z AUTO 31005KT 6SM VV014 M10/M12 A2963 RMK AO1 SLP080
METAR CYNL 251800Z AUTO 32004KT 6SM VV016 M11/M13 A2963 RMK AO1 SLP080
SPECI CYNL 251749Z AUTO 30004KT 3SM VV017 M11/M13 A2963 RMK AO1 PRESRR SLP079
SPECI CYNL 251740Z AUTO 31005KT 2 1/2SM VV015 M11/M13 A2962 RMK AO1 PRESRR SLP077
SPECI CYNL 251734Z AUTO 31006KT 2 1/2SM VV012 M11/M13 A2962 RMK AO1 PRESRR SLP077
SPECI CYNL 251731Z AUTO 30005KT 7SM VV014 M11/M13 A2962 RMK AO1 PRESRR SLP077
SPECI CYNL 251712Z AUTO 32004KT 6SM VV024 M11/M13 A2961 RMK AO1 PRESRR SLP074
SPECI CYNL 251711Z AUTO 31003KT 6SM VV025 M11/M13 A2961 RMK AO1 PRESRR SLP074
METAR CYNL 251700Z AUTO 31005KT 3SM VV023 M11/M13 A2961 RMK AO1 PRESRR SLP073
SPECI CYNL 251654Z AUTO 32006KT 3SM VV021 M11/M13 A2961 RMK AO1 SLP074
SPECI CYNL 251651Z AUTO 31004KT 2SM VV018 M11/M13 A2961 RMK AO1 SLP074
SPECI CYNL 251650Z AUTO 31003KT 1 3/4SM VV017 M11/M13 A2961 RMK AO1 SLP074
SPECI CYNL 251646Z AUTO 33005KT 2SM VV015 M11/M13 A2961 RMK AO1 SLP073
SPECI CYNL 251639Z AUTO 32006KT 2 1/2SM VV013 M11/M13 A2961 RMK AO1 SLP072
SPECI CYNL 251638Z AUTO 31005KT 3SM VV013 M11/M13 A2961 RMK AO1 SLP072
SPECI CYNL 251636Z AUTO 31003KT 2 1/2SM VV013 M11/M13 A2961 RMK AO1 SLP072
SPECI CYNL 251619Z AUTO 30004KT 9SM SCT010 BKN012 OVC032 M11/M13 A2960 RMK AO1 SLP069
METAR CYNL 251600Z AUTO ///// 9SM FEW010 OVC032 M11/M13 A2959 RMK AO1 SLP065
SPECI CYNL 251549Z AUTO 32006KT 9SM SCT010 OVC031 M11/M13 A2959 RMK AO1 PRESRR SLP065
SPECI CYNL 251530Z AUTO ///// 9SM BKN010 OVC014 M11/M13 A2958 RMK AO1 PRESRR SLP063
METAR CYNL 251500Z AUTO 31004KT 9SM OVC009 M11/M13 A2957 RMK AO1 PRESRR SLP060
SPECI CYNL 251433Z AUTO 30004KT 9SM BKN009 BKN032 OVC039 M11/M12 A2956 RMK AO1 PRESRR SLP055
METAR CYNL 251400Z AUTO 31005KT 9SM FEW009 BKN017 OVC032 M11/M12 A2955 RMK AO1 PRESRR SLP051
SPECI CYNL 251341Z AUTO 32005KT 9SM FEW003 SCT008 BKN018 M10/M12 A2954 RMK AO1 SLP048
SPECI CYNL 251337Z AUTO 32005KT 9SM FEW003 SCT008 BKN025 M10/M12 A2954 RMK AO1 SLP047
SPECI CYNL 251325Z AUTO 29006KT 8SM FEW003 BKN008 BKN025 M10/M12 A2954 RMK AO1 SLP045
SPECI CYNL 251322Z AUTO 29005KT 9SM SCT008 BKN025 OVC041 M10/M12 A2953 RMK AO1 SLP045
SPECI CYNL 251320Z AUTO 30004KT 9SM SCT008 BKN012 BKN025 M10/M12 A2953 RMK AO1 SLP044
METAR CYNL 251300Z AUTO 31004KT 9SM SCT008 BKN009 OVC016 M10/M12 A2953 RMK AO1 SLP042
SPECI CYNL 251259Z AUTO 31005KT 9SM SCT008 BKN009 OVC016 M10/M12 A2953 RMK AO1 SLP042
SPECI CYNL 251253Z AUTO 30003KT 9SM FEW008 SCT009 BKN011 M10/M12 A2953 RMK AO1 SLP041
SPECI CYNL 251248Z AUTO 31004KT 7SM SCT009 OVC016 M10/M12 A2952 RMK AO1 SLP041
SPECI CYNL 251240Z AUTO 31006KT 5SM VV017 M10/M12 A2952 RMK AO1 SLP040
SPECI CYNL 251235Z AUTO 32006KT 4SM SCT009 BKN011 OVC019 M10/M12 A2952 RMK AO1 SLP040
SPECI CYNL 251229Z AUTO 32006KT 3SM BKN010 OVC020 M10/M12 A2952 RMK AO1 SLP040
SPECI CYNL 251220Z AUTO 31007KT 2 1/2SM FEW004 BKN012 OVC020 M10/M11 A2952 RMK AO1 SLP039
SPECI CYNL 251215Z AUTO 31007KT 2SM VV015 M10/M11 A2952 RMK AO1 SLP039
METAR CYNL 251200Z AUTO 32004KT 2SM VV012 M10/M11 A2951 RMK AO1 SLP036
SPECI CYNL 251152Z AUTO 31004KT 2SM VV012 M10/M11 A2951 RMK AO1 SLP035
SPECI CYNL 251143Z AUTO 31004KT 1 3/4SM VV013 M10/M11 A2951 RMK AO1 SLP034
SPECI CYNL 251140Z AUTO 31004KT 2SM VV013 M10/M11 A2951 RMK AO1 SLP034
SPECI CYNL 251127Z AUTO 31006KT 1 3/4SM VV012 M10/M11 A2950 RMK AO1 SLP033
SPECI CYNL 251122Z AUTO 31005KT 2SM VV013 M10/M11 A2950 RMK AO1 SLP032
SPECI CYNL 251121Z AUTO 31005KT 1 3/4SM VV014 M10/M11 A2950 RMK AO1 SLP032
SPECI CYNL 251118Z AUTO 31006KT 2 1/2SM VV014 M10/M11 A2950 RMK AO1 SLP031
SPECI CYNL 251114Z AUTO 30006KT 2 1/2SM VV016 M10/M11 A2950 RMK AO1 SLP031
METAR CYNL 251100Z AUTO 30005KT 4SM VV016 M10/M11 A2950 RMK AO1 SLP030
SPECI CYNL 251038Z AUTO 31004KT 3SM VV019 M10/M11 A2949 RMK AO1 SLP028
SPECI CYNL 251027Z AUTO 30006KT 2 1/2SM VV020 M09/M11 A2949 RMK AO1 SLP027
SPECI CYNL 251024Z AUTO 30005KT 3SM VV022 M09/M11 A2949 RMK AO1 SLP027
SPECI CYNL 251022Z AUTO 29007KT 3SM VV028 M09/M11 A2949 RMK AO1 SLP026
SPECI CYNL 251003Z AUTO 29009KT 6SM VV030 M09/M11 A2948 RMK AO1 SLP024
METAR CYNL 251000Z AUTO 29008KT 5SM VV028 M09/M11 A2948 RMK AO1 SLP023
SPECI CYNL 250956Z AUTO 29008KT 4SM VV025 M09/M11 A2948 RMK AO1 SLP022
SPECI CYNL 250950Z AUTO 29009KT 3SM VV020 M09/M11 A2948 RMK AO1 SLP021
SPECI CYNL 250943Z AUTO 29008G15KT 2 1/2SM VV024 M09/M10 A2947 RMK AO1 SLP020
SPECI CYNL 250941Z AUTO 29007G15KT 3SM VV023 M09/M10 A2947 RMK AO1 SLP019
SPECI CYNL 250938Z AUTO 29007G16KT 2 1/2SM VV024 M09/M10 A2947 RMK AO1 SLP019
SPECI CYNL 250937Z AUTO 29008G16KT 2 1/2SM VV027 M09/M10 A2947 RMK AO1 SLP018